CES188 LTFM-ZPPP
Flight info
| Callsign | CES188 |
|---|---|
| Flight time | 8h 24m |
| Altitude | 35000 |
| Route | DCT ASMAP UL333 BAG UL614 GOBIT UG8 EZS UT36 ALRAM G208 GETOB/N0458F270 G208 ZAJ/N0472F370 G208 PAROT/N0459F270 G208 KEBUD/N0481F370 G208 PG G210 TELEM/N0474F390 A791 CEA B465 CTG A599 LINSO/K0885S1190 A599 GULOT GULOT9E |
| Aircraft | A343/H-SDE2E3FGHIJ4J5M1RWXY/LB1D1 |
Departure
| Time | 2026-05-07 11:28 |
|---|---|
| Airport | İstanbul Airport (LTFM) |
Arrival
| Time | 2026-05-07 19:52 |
|---|---|
| Airport | Kunming Changshui International Airport (ZPPP) |
| Time | Latitude | Longitude | Altitude | Speed | Heading |
|---|---|---|---|---|---|
| 2026-05-07 10:30 | 41.26879 | 28.71950 | 180 ft | 0 kts | 359° |
| 2026-05-07 11:14 | 41.26870 | 28.71950 | 180 ft | 4 kts | 357° |
| 2026-05-07 11:15 | 41.26843 | 28.71954 | 180 ft | 4 kts | 352° |
| 2026-05-07 11:15 | 41.26817 | 28.71956 | 180 ft | 4 kts | 12° |
| 2026-05-07 11:15 | 41.26804 | 28.71950 | 180 ft | 3 kts | 34° |
| 2026-05-07 11:15 | 41.26783 | 28.71916 | 180 ft | 4 kts | 85° |
| 2026-05-07 11:16 | 41.26783 | 28.71892 | 180 ft | 4 kts | 93° |
| 2026-05-07 11:16 | 41.26783 | 28.71880 | 180 ft | 0 kts | 89° |
| 2026-05-07 11:21 | 41.26783 | 28.71881 | 180 ft | 1 kts | 89° |
| 2026-05-07 11:21 | 41.26784 | 28.71905 | 180 ft | 4 kts | 89° |
| 2026-05-07 11:22 | 41.26784 | 28.71962 | 180 ft | 8 kts | 89° |
| 2026-05-07 11:22 | 41.26785 | 28.72046 | 180 ft | 10 kts | 89° |
| 2026-05-07 11:22 | 41.26786 | 28.72136 | 180 ft | 9 kts | 89° |
| 2026-05-07 11:22 | 41.26786 | 28.72222 | 180 ft | 9 kts | 89° |
| 2026-05-07 11:23 | 41.26762 | 28.72280 | 180 ft | 7 kts | 143° |
| 2026-05-07 11:23 | 41.26707 | 28.72286 | 180 ft | 9 kts | 180° |
| 2026-05-07 11:23 | 41.26630 | 28.72287 | 180 ft | 12 kts | 179° |
| 2026-05-07 11:23 | 41.26534 | 28.72290 | 180 ft | 15 kts | 179° |
| 2026-05-07 11:24 | 41.26421 | 28.72292 | 180 ft | 18 kts | 179° |
| 2026-05-07 11:24 | 41.26304 | 28.72295 | 180 ft | 13 kts | 179° |
| 2026-05-07 11:24 | 41.26215 | 28.72304 | 180 ft | 9 kts | 155° |
| 2026-05-07 11:24 | 41.26198 | 28.72366 | 179 ft | 8 kts | 89° |
| 2026-05-07 11:25 | 41.26198 | 28.72374 | 179 ft | 0 kts | 89° |
| 2026-05-07 11:25 | 41.26199 | 28.72378 | 179 ft | 2 kts | 89° |
| 2026-05-07 11:26 | 41.26199 | 28.72418 | 179 ft | 6 kts | 89° |
| 2026-05-07 11:26 | 41.26205 | 28.72494 | 179 ft | 8 kts | 63° |
| 2026-05-07 11:26 | 41.26260 | 28.72522 | 179 ft | 9 kts | 2° |
| 2026-05-07 11:26 | 41.26353 | 28.72522 | 180 ft | 23 kts | 359° |
| 2026-05-07 11:27 | 41.26678 | 28.72516 | 182 ft | 71 kts | 359° |
| 2026-05-07 11:27 | 41.27323 | 28.72503 | 178 ft | 113 kts | 359° |
| 2026-05-07 11:27 | 41.28228 | 28.72486 | 181 ft | 146 kts | 359° |
| 2026-05-07 11:27 | 41.29345 | 28.72453 | 237 ft | 170 kts | 0° |
| 2026-05-07 11:28 | 41.30489 | 28.72366 | 634 ft | 173 kts | 1° |
| 2026-05-07 11:28 | 41.31713 | 28.72364 | 1057 ft | 176 kts | 2° |
| 2026-05-07 11:28 | 41.32957 | 28.72407 | 1462 ft | 185 kts | 1° |
| 2026-05-07 11:28 | 41.34246 | 28.72447 | 1687 ft | 204 kts | 0° |
| 2026-05-07 11:29 | 41.35758 | 28.72453 | 1842 ft | 231 kts | 355° |
| 2026-05-07 11:29 | 41.37330 | 28.71733 | 2089 ft | 249 kts | 319° |
| 2026-05-07 11:29 | 41.38278 | 28.69872 | 2662 ft | 251 kts | 282° |
| 2026-05-07 11:29 | 41.38383 | 28.67555 | 3434 ft | 250 kts | 267° |
| 2026-05-07 11:30 | 41.38284 | 28.65241 | 4223 ft | 251 kts | 267° |
| 2026-05-07 11:30 | 41.38196 | 28.62895 | 4939 ft | 255 kts | 269° |
| 2026-05-07 11:30 | 41.38112 | 28.60513 | 5638 ft | 258 kts | 266° |
| 2026-05-07 11:30 | 41.37688 | 28.58204 | 6332 ft | 264 kts | 247° |
| 2026-05-07 11:31 | 41.36584 | 28.56226 | 7009 ft | 272 kts | 223° |
| 2026-05-07 11:31 | 41.34893 | 28.55033 | 7624 ft | 282 kts | 196° |
| 2026-05-07 11:31 | 41.32908 | 28.54896 | 8245 ft | 289 kts | 177° |
| 2026-05-07 11:31 | 41.30886 | 28.55053 | 8892 ft | 293 kts | 179° |
| 2026-05-07 11:32 | 41.26777 | 28.55256 | 10122 ft | 301 kts | 176° |
| 2026-05-07 11:32 | 41.24698 | 28.55963 | 10377 ft | 318 kts | 153° |
| 2026-05-07 11:32 | 41.22880 | 28.57764 | 10622 ft | 333 kts | 136° |
| 2026-05-07 11:33 | 41.21174 | 28.59966 | 10868 ft | 348 kts | 135° |
| 2026-05-07 11:33 | 41.19433 | 28.62251 | 11106 ft | 363 kts | 135° |
| 2026-05-07 11:33 | 41.17592 | 28.64643 | 11330 ft | 377 kts | 135° |
| 2026-05-07 11:33 | 41.15691 | 28.67091 | 11648 ft | 386 kts | 135° |
| 2026-05-07 11:34 | 41.13740 | 28.69602 | 12149 ft | 392 kts | 135° |
| 2026-05-07 11:34 | 41.11964 | 28.72388 | 12680 ft | 395 kts | 124° |
| 2026-05-07 11:34 | 41.10443 | 28.75398 | 13260 ft | 398 kts | 122° |
| 2026-05-07 11:34 | 41.08939 | 28.78491 | 13849 ft | 401 kts | 122° |
| 2026-05-07 11:35 | 41.07416 | 28.81617 | 14353 ft | 405 kts | 122° |
| 2026-05-07 11:35 | 41.05892 | 28.84732 | 14828 ft | 408 kts | 122° |
| 2026-05-07 11:35 | 41.04248 | 28.87841 | 15303 ft | 413 kts | 129° |
| 2026-05-07 11:35 | 41.02084 | 28.90365 | 15778 ft | 417 kts | 149° |
| 2026-05-07 11:36 | 40.99393 | 28.91830 | 16264 ft | 420 kts | 169° |
| 2026-05-07 11:36 | 40.96519 | 28.92091 | 16739 ft | 420 kts | 185° |
| 2026-05-07 11:36 | 40.93572 | 28.91749 | 17211 ft | 423 kts | 187° |
| 2026-05-07 11:36 | 40.90651 | 28.91345 | 17689 ft | 427 kts | 187° |
| 2026-05-07 11:37 | 40.87652 | 28.91019 | 18152 ft | 432 kts | 183° |
| 2026-05-07 11:37 | 40.84644 | 28.91104 | 18601 ft | 436 kts | 178° |
| 2026-05-07 11:37 | 40.81594 | 28.91337 | 18999 ft | 440 kts | 178° |
| 2026-05-07 11:37 | 40.78515 | 28.91591 | 19408 ft | 443 kts | 178° |
| 2026-05-07 11:38 | 40.75463 | 28.91842 | 19797 ft | 447 kts | 178° |
| 2026-05-07 11:38 | 40.72347 | 28.92096 | 20187 ft | 450 kts | 178° |
| 2026-05-07 11:38 | 40.69201 | 28.92350 | 20574 ft | 453 kts | 178° |
| 2026-05-07 11:38 | 40.66031 | 28.92606 | 20969 ft | 457 kts | 178° |
| 2026-05-07 11:39 | 40.62884 | 28.92890 | 21340 ft | 461 kts | 176° |
| 2026-05-07 11:39 | 40.59689 | 28.93594 | 21705 ft | 466 kts | 167° |
| 2026-05-07 11:39 | 40.56597 | 28.95006 | 22087 ft | 471 kts | 156° |
| 2026-05-07 11:39 | 40.53749 | 28.97103 | 22422 ft | 476 kts | 145° |
| 2026-05-07 11:40 | 40.51175 | 28.99900 | 22737 ft | 479 kts | 134° |
| 2026-05-07 11:40 | 40.49022 | 29.03255 | 23070 ft | 481 kts | 123° |
| 2026-05-07 11:40 | 40.47368 | 29.07044 | 23443 ft | 481 kts | 112° |
| 2026-05-07 11:40 | 40.46238 | 29.11176 | 23764 ft | 480 kts | 101° |
| 2026-05-07 11:41 | 40.45689 | 29.15490 | 24057 ft | 477 kts | 90° |
| 2026-05-07 11:41 | 40.45723 | 29.19784 | 24366 ft | 473 kts | 80° |
| 2026-05-07 11:41 | 40.46321 | 29.24008 | 24642 ft | 469 kts | 69° |
| 2026-05-07 11:41 | 40.47451 | 29.27974 | 24931 ft | 465 kts | 59° |
| 2026-05-07 11:42 | 40.49083 | 29.31633 | 25216 ft | 460 kts | 49° |
| 2026-05-07 11:42 | 40.51137 | 29.34833 | 25545 ft | 455 kts | 40° |
| 2026-05-07 11:42 | 40.53504 | 29.37595 | 25819 ft | 454 kts | 36° |
| 2026-05-07 11:42 | 40.55795 | 29.40455 | 26014 ft | 462 kts | 43° |
| 2026-05-07 11:43 | 40.57768 | 29.43834 | 26378 ft | 469 kts | 53° |
| 2026-05-07 11:43 | 40.59265 | 29.47633 | 26651 ft | 478 kts | 63° |
| 2026-05-07 11:43 | 40.60238 | 29.51867 | 26896 ft | 487 kts | 75° |
| 2026-05-07 11:43 | 40.60601 | 29.56347 | 27150 ft | 496 kts | 85° |
| 2026-05-07 11:44 | 40.60597 | 29.60916 | 27416 ft | 497 kts | 84° |
| 2026-05-07 11:44 | 40.60856 | 29.65403 | 27693 ft | 496 kts | 79° |
| 2026-05-07 11:44 | 40.61241 | 29.69920 | 27948 ft | 497 kts | 78° |
| 2026-05-07 11:44 | 40.61652 | 29.74472 | 28166 ft | 500 kts | 78° |
| 2026-05-07 11:45 | 40.62060 | 29.78978 | 28414 ft | 501 kts | 78° |
| 2026-05-07 11:45 | 40.62473 | 29.83555 | 28697 ft | 503 kts | 78° |
| 2026-05-07 11:45 | 40.62887 | 29.88150 | 28955 ft | 504 kts | 78° |
| 2026-05-07 11:45 | 40.63302 | 29.92748 | 29276 ft | 504 kts | 78° |
| 2026-05-07 11:46 | 40.63710 | 29.97335 | 29597 ft | 503 kts | 78° |
| 2026-05-07 11:46 | 40.64110 | 30.01864 | 29967 ft | 503 kts | 78° |
| 2026-05-07 11:46 | 40.64514 | 30.06446 | 30272 ft | 502 kts | 78° |
| 2026-05-07 11:46 | 40.64916 | 30.11017 | 30543 ft | 502 kts | 78° |
| 2026-05-07 11:47 | 40.65311 | 30.15529 | 30825 ft | 501 kts | 78° |
| 2026-05-07 11:47 | 40.65712 | 30.20122 | 31034 ft | 502 kts | 78° |
| 2026-05-07 11:47 | 40.66106 | 30.24652 | 31301 ft | 501 kts | 78° |
| 2026-05-07 11:47 | 40.66407 | 30.29257 | 31599 ft | 503 kts | 84° |
| 2026-05-07 11:48 | 40.66295 | 30.33845 | 31851 ft | 507 kts | 90° |
| 2026-05-07 11:48 | 40.65992 | 30.38481 | 32082 ft | 508 kts | 91° |
| 2026-05-07 11:48 | 40.65610 | 30.43106 | 32346 ft | 508 kts | 92° |
| 2026-05-07 11:48 | 40.65197 | 30.47731 | 32596 ft | 507 kts | 93° |
| 2026-05-07 11:49 | 40.64777 | 30.52353 | 32836 ft | 506 kts | 93° |
| 2026-05-07 11:49 | 40.64365 | 30.56961 | 33066 ft | 506 kts | 92° |
| 2026-05-07 11:49 | 40.63964 | 30.61527 | 33270 ft | 505 kts | 92° |
| 2026-05-07 11:49 | 40.63567 | 30.66126 | 33487 ft | 505 kts | 92° |
| 2026-05-07 11:50 | 40.63070 | 30.70703 | 33699 ft | 507 kts | 98° |
| 2026-05-07 11:50 | 40.62264 | 30.75175 | 33941 ft | 507 kts | 101° |
| 2026-05-07 11:50 | 40.61369 | 30.79680 | 34130 ft | 507 kts | 102° |
| 2026-05-07 11:50 | 40.60435 | 30.84168 | 34325 ft | 506 kts | 102° |
| 2026-05-07 11:51 | 40.59484 | 30.88629 | 34503 ft | 506 kts | 103° |
| 2026-05-07 11:51 | 40.58536 | 30.93042 | 34643 ft | 506 kts | 103° |
| 2026-05-07 11:51 | 40.57575 | 30.97510 | 34811 ft | 505 kts | 103° |
| 2026-05-07 11:51 | 40.56616 | 31.01974 | 34982 ft | 505 kts | 103° |
| 2026-05-07 11:52 | 40.55659 | 31.06436 | 35120 ft | 506 kts | 103° |
| 2026-05-07 11:52 | 40.53743 | 31.15372 | 35139 ft | 509 kts | 103° |
| 2026-05-07 11:53 | 40.51829 | 31.24286 | 35142 ft | 507 kts | 103° |
| 2026-05-07 11:53 | 40.49910 | 31.33171 | 35146 ft | 507 kts | 102° |
| 2026-05-07 11:54 | 40.47974 | 31.42069 | 35144 ft | 507 kts | 103° |
| 2026-05-07 11:54 | 40.46029 | 31.50990 | 35147 ft | 508 kts | 102° |
| 2026-05-07 11:55 | 40.44082 | 31.59908 | 35146 ft | 508 kts | 102° |
| 2026-05-07 11:55 | 40.42131 | 31.68797 | 35149 ft | 508 kts | 102° |
| 2026-05-07 11:56 | 40.40171 | 31.77688 | 35147 ft | 508 kts | 102° |
| 2026-05-07 11:56 | 40.38189 | 31.86648 | 35156 ft | 509 kts | 102° |
| 2026-05-07 11:57 | 40.36214 | 31.95552 | 35154 ft | 510 kts | 102° |
| 2026-05-07 11:57 | 40.34224 | 32.04457 | 35161 ft | 511 kts | 102° |
| 2026-05-07 11:58 | 40.31693 | 32.13206 | 35183 ft | 514 kts | 110° |
| 2026-05-07 11:58 | 40.28690 | 32.21696 | 35156 ft | 516 kts | 112° |
| 2026-05-07 11:59 | 40.25574 | 32.30242 | 35168 ft | 517 kts | 112° |
| 2026-05-07 11:59 | 40.22474 | 32.38726 | 35167 ft | 517 kts | 112° |
| 2026-05-07 12:00 | 40.19388 | 32.47187 | 35172 ft | 517 kts | 112° |
| 2026-05-07 12:00 | 40.16291 | 32.55671 | 35154 ft | 518 kts | 112° |
| 2026-05-07 12:01 | 40.13187 | 32.64155 | 35171 ft | 518 kts | 112° |
| 2026-05-07 12:01 | 40.10078 | 32.72624 | 35166 ft | 516 kts | 112° |
| 2026-05-07 12:02 | 40.06958 | 32.81099 | 35176 ft | 516 kts | 112° |
| 2026-05-07 12:02 | 40.04196 | 32.89661 | 35168 ft | 513 kts | 107° |
| 2026-05-07 12:03 | 40.01755 | 32.98429 | 35166 ft | 512 kts | 106° |
| 2026-05-07 12:03 | 39.99296 | 33.07126 | 35169 ft | 513 kts | 107° |
| 2026-05-07 12:04 | 39.97180 | 33.14374 | 35165 ft | 513 kts | 107° |
| 2026-05-07 12:04 | 39.94602 | 33.23063 | 35166 ft | 512 kts | 108° |
| 2026-05-07 12:05 | 39.92019 | 33.31719 | 35158 ft | 512 kts | 108° |
| 2026-05-07 12:05 | 39.89439 | 33.40348 | 35156 ft | 512 kts | 108° |
| 2026-05-07 12:06 | 39.86862 | 33.48949 | 35152 ft | 512 kts | 108° |
| 2026-05-07 12:06 | 39.84262 | 33.57602 | 35154 ft | 512 kts | 108° |
| 2026-05-07 12:07 | 39.82145 | 33.66392 | 35157 ft | 509 kts | 101° |
| 2026-05-07 12:07 | 39.80321 | 33.75238 | 35166 ft | 508 kts | 101° |
| 2026-05-07 12:08 | 39.78525 | 33.84151 | 35154 ft | 508 kts | 101° |
| 2026-05-07 12:08 | 39.76415 | 33.92896 | 35162 ft | 510 kts | 106° |
| 2026-05-07 12:09 | 39.73992 | 34.01601 | 35161 ft | 511 kts | 107° |
| 2026-05-07 12:09 | 39.71530 | 34.10234 | 35165 ft | 511 kts | 107° |
| 2026-05-07 12:10 | 39.69064 | 34.18856 | 35156 ft | 511 kts | 107° |
| 2026-05-07 12:10 | 39.66581 | 34.27533 | 35163 ft | 510 kts | 107° |
| 2026-05-07 12:11 | 39.64114 | 34.36142 | 35168 ft | 510 kts | 107° |
| 2026-05-07 12:11 | 39.61635 | 34.44764 | 35165 ft | 509 kts | 107° |
| 2026-05-07 12:12 | 39.59154 | 34.53365 | 35156 ft | 509 kts | 107° |
| 2026-05-07 12:12 | 39.56681 | 34.61910 | 35168 ft | 509 kts | 107° |
| 2026-05-07 12:13 | 39.54183 | 34.70514 | 35167 ft | 509 kts | 107° |
| 2026-05-07 12:13 | 39.51683 | 34.79093 | 35174 ft | 509 kts | 107° |
| 2026-05-07 12:14 | 39.49176 | 34.87676 | 35177 ft | 510 kts | 107° |
| 2026-05-07 12:14 | 39.46659 | 34.96260 | 35168 ft | 511 kts | 107° |
| 2026-05-07 12:15 | 39.44132 | 35.04849 | 35168 ft | 511 kts | 108° |
| 2026-05-07 12:15 | 39.41598 | 35.13437 | 35185 ft | 511 kts | 108° |
| 2026-05-07 12:16 | 39.39064 | 35.22031 | 35168 ft | 512 kts | 107° |
| 2026-05-07 12:16 | 39.36574 | 35.30641 | 35164 ft | 512 kts | 107° |
| 2026-05-07 12:17 | 39.34098 | 35.39212 | 35166 ft | 512 kts | 107° |
| 2026-05-07 12:17 | 39.31596 | 35.47822 | 35160 ft | 512 kts | 107° |
| 2026-05-07 12:18 | 39.29081 | 35.56433 | 35160 ft | 512 kts | 107° |
| 2026-05-07 12:18 | 39.26562 | 35.65027 | 35160 ft | 512 kts | 107° |
| 2026-05-07 12:19 | 39.24037 | 35.73615 | 35152 ft | 511 kts | 108° |
| 2026-05-07 12:19 | 39.21512 | 35.82174 | 35154 ft | 510 kts | 108° |
| 2026-05-07 12:20 | 39.18984 | 35.90715 | 35152 ft | 510 kts | 108° |
| 2026-05-07 12:20 | 39.16463 | 35.99215 | 35163 ft | 509 kts | 109° |
| 2026-05-07 12:21 | 39.14743 | 36.07978 | 35150 ft | 502 kts | 97° |
| 2026-05-07 12:21 | 39.13568 | 36.16832 | 35151 ft | 501 kts | 96° |
| 2026-05-07 12:22 | 39.12468 | 36.25700 | 35153 ft | 502 kts | 96° |
| 2026-05-07 12:22 | 39.11354 | 36.34578 | 35148 ft | 502 kts | 96° |
| 2026-05-07 12:23 | 39.10220 | 36.43451 | 35147 ft | 502 kts | 96° |
| 2026-05-07 12:23 | 39.09071 | 36.52322 | 35149 ft | 502 kts | 97° |
| 2026-05-07 12:24 | 39.07916 | 36.61181 | 35150 ft | 501 kts | 97° |
| 2026-05-07 12:24 | 39.06764 | 36.69970 | 35154 ft | 501 kts | 97° |
| 2026-05-07 12:25 | 39.05598 | 36.78810 | 35154 ft | 501 kts | 97° |
| 2026-05-07 12:25 | 39.04424 | 36.87657 | 35154 ft | 501 kts | 97° |
| 2026-05-07 12:26 | 39.03247 | 36.96481 | 35156 ft | 501 kts | 98° |
| 2026-05-07 12:26 | 39.02060 | 37.05326 | 35154 ft | 501 kts | 98° |
| 2026-05-07 12:27 | 39.00873 | 37.14110 | 35153 ft | 501 kts | 98° |
| 2026-05-07 12:27 | 38.99677 | 37.22923 | 35147 ft | 501 kts | 98° |
| 2026-05-07 12:28 | 38.98468 | 37.31773 | 35149 ft | 502 kts | 98° |
| 2026-05-07 12:28 | 38.97254 | 37.40608 | 35135 ft | 502 kts | 98° |
| 2026-05-07 12:29 | 38.96030 | 37.49460 | 35127 ft | 502 kts | 98° |
| 2026-05-07 12:29 | 38.94800 | 37.58307 | 35131 ft | 503 kts | 99° |
| 2026-05-07 12:30 | 38.93560 | 37.67175 | 35141 ft | 504 kts | 99° |
| 2026-05-07 12:30 | 38.92322 | 37.75974 | 35130 ft | 503 kts | 99° |
| 2026-05-07 12:31 | 38.91065 | 37.84857 | 35119 ft | 503 kts | 100° |
| 2026-05-07 12:31 | 38.89808 | 37.93696 | 35121 ft | 504 kts | 100° |
| 2026-05-07 12:32 | 38.88546 | 38.02523 | 35111 ft | 505 kts | 100° |
| 2026-05-07 12:32 | 38.87273 | 38.11370 | 35122 ft | 505 kts | 100° |
| 2026-05-07 12:33 | 38.85350 | 38.24638 | 35119 ft | 506 kts | 101° |
| 2026-05-07 12:33 | 38.84059 | 38.33488 | 35117 ft | 506 kts | 101° |
| 2026-05-07 12:34 | 38.82761 | 38.42339 | 35115 ft | 506 kts | 101° |
| 2026-05-07 12:34 | 38.81447 | 38.51251 | 35115 ft | 505 kts | 101° |
| 2026-05-07 12:35 | 38.80138 | 38.60076 | 35113 ft | 506 kts | 102° |
| 2026-05-07 12:35 | 38.78820 | 38.68912 | 35109 ft | 506 kts | 102° |
| 2026-05-07 12:36 | 38.77496 | 38.77743 | 35118 ft | 506 kts | 102° |
| 2026-05-07 12:36 | 38.76155 | 38.86644 | 35118 ft | 508 kts | 102° |
| 2026-05-07 12:37 | 38.74817 | 38.95544 | 35113 ft | 509 kts | 102° |
| 2026-05-07 12:37 | 38.73509 | 39.04402 | 35121 ft | 509 kts | 102° |
| 2026-05-07 12:38 | 38.72183 | 39.13352 | 35108 ft | 510 kts | 102° |
| 2026-05-07 12:38 | 38.70853 | 39.22253 | 35118 ft | 512 kts | 102° |
| 2026-05-07 12:39 | 38.69631 | 39.31210 | 35120 ft | 512 kts | 101° |
| 2026-05-07 12:39 | 38.68529 | 39.40181 | 35112 ft | 511 kts | 100° |
| 2026-05-07 12:40 | 38.67411 | 39.49157 | 35120 ft | 511 kts | 101° |
| 2026-05-07 12:40 | 38.66257 | 39.58154 | 35115 ft | 511 kts | 101° |
| 2026-05-07 12:41 | 38.65089 | 39.67130 | 35112 ft | 511 kts | 101° |
| 2026-05-07 12:41 | 38.63920 | 39.76059 | 35096 ft | 511 kts | 101° |
| 2026-05-07 12:42 | 38.62737 | 39.85037 | 35119 ft | 513 kts | 101° |
| 2026-05-07 12:42 | 38.61539 | 39.94077 | 35124 ft | 514 kts | 102° |
| 2026-05-07 12:43 | 38.60341 | 40.03074 | 35117 ft | 514 kts | 102° |
| 2026-05-07 12:43 | 38.59143 | 40.12017 | 35116 ft | 514 kts | 102° |
| 2026-05-07 12:44 | 38.57922 | 40.21066 | 35117 ft | 515 kts | 102° |
| 2026-05-07 12:44 | 38.56701 | 40.30054 | 35112 ft | 515 kts | 102° |
| 2026-05-07 12:45 | 38.55476 | 40.39036 | 35111 ft | 515 kts | 102° |
| 2026-05-07 12:45 | 38.54257 | 40.48102 | 35105 ft | 516 kts | 102° |
| 2026-05-07 12:46 | 38.53100 | 40.57128 | 35103 ft | 517 kts | 102° |
| 2026-05-07 12:46 | 38.51934 | 40.66190 | 35105 ft | 517 kts | 102° |
| 2026-05-07 12:47 | 38.50754 | 40.75223 | 35099 ft | 517 kts | 102° |
| 2026-05-07 12:47 | 38.49554 | 40.84286 | 35108 ft | 517 kts | 102° |
| 2026-05-07 12:48 | 38.48356 | 40.93312 | 35103 ft | 517 kts | 102° |
| 2026-05-07 12:48 | 38.47154 | 41.02322 | 35102 ft | 518 kts | 103° |
| 2026-05-07 12:49 | 38.45934 | 41.11367 | 35109 ft | 518 kts | 103° |
| 2026-05-07 12:49 | 38.44596 | 41.20381 | 35108 ft | 518 kts | 104° |
| 2026-05-07 12:50 | 38.43206 | 41.29423 | 35110 ft | 518 kts | 104° |
| 2026-05-07 12:50 | 38.41831 | 41.38419 | 35103 ft | 518 kts | 104° |
| 2026-05-07 12:51 | 38.40462 | 41.47424 | 35115 ft | 518 kts | 104° |
| 2026-05-07 12:51 | 38.39092 | 41.56410 | 35111 ft | 519 kts | 105° |
| 2026-05-07 12:52 | 38.37704 | 41.65466 | 35122 ft | 519 kts | 105° |
| 2026-05-07 12:52 | 38.36322 | 41.74452 | 35117 ft | 519 kts | 105° |
| 2026-05-07 12:53 | 38.34927 | 41.83458 | 35124 ft | 520 kts | 105° |
| 2026-05-07 12:53 | 38.33558 | 41.92528 | 35129 ft | 520 kts | 105° |
| 2026-05-07 12:54 | 38.32210 | 42.01558 | 35130 ft | 520 kts | 105° |
| 2026-05-07 12:54 | 38.30852 | 42.10593 | 35130 ft | 521 kts | 105° |
| 2026-05-07 12:55 | 38.29470 | 42.19683 | 35134 ft | 522 kts | 105° |
| 2026-05-07 12:55 | 38.28084 | 42.28762 | 35141 ft | 522 kts | 105° |
| 2026-05-07 12:56 | 38.26694 | 42.37807 | 35138 ft | 523 kts | 106° |
| 2026-05-07 12:56 | 38.25295 | 42.46892 | 35149 ft | 525 kts | 106° |
| 2026-05-07 12:57 | 38.23883 | 42.55994 | 35143 ft | 525 kts | 106° |
| 2026-05-07 12:57 | 38.22461 | 42.65096 | 35146 ft | 525 kts | 106° |
| 2026-05-07 12:58 | 38.21028 | 42.74214 | 35148 ft | 524 kts | 106° |
| 2026-05-07 12:58 | 38.19598 | 42.83279 | 35152 ft | 524 kts | 107° |
| 2026-05-07 12:59 | 38.18154 | 42.92384 | 35148 ft | 524 kts | 107° |
| 2026-05-07 12:59 | 38.16715 | 43.01417 | 35150 ft | 525 kts | 107° |
| 2026-05-07 13:00 | 38.15265 | 43.10474 | 35144 ft | 525 kts | 107° |
| 2026-05-07 13:00 | 38.13795 | 43.19600 | 35144 ft | 524 kts | 107° |
| 2026-05-07 13:01 | 38.12330 | 43.28650 | 35118 ft | 524 kts | 107° |
| 2026-05-07 13:01 | 38.10541 | 43.37562 | 35136 ft | 516 kts | 118° |
| 2026-05-07 13:02 | 38.07771 | 43.45957 | 35140 ft | 514 kts | 121° |
| 2026-05-07 13:02 | 38.04850 | 43.54188 | 35101 ft | 513 kts | 122° |
| 2026-05-07 13:03 | 38.01890 | 43.62438 | 35130 ft | 515 kts | 122° |
| 2026-05-07 13:03 | 37.98944 | 43.70691 | 35130 ft | 515 kts | 122° |
| 2026-05-07 13:04 | 37.95991 | 43.78975 | 35107 ft | 515 kts | 122° |
| 2026-05-07 13:04 | 37.93050 | 43.87212 | 35116 ft | 515 kts | 122° |
| 2026-05-07 13:05 | 37.90099 | 43.95445 | 35114 ft | 516 kts | 122° |
| 2026-05-07 13:05 | 37.87135 | 44.03692 | 35096 ft | 515 kts | 122° |
| 2026-05-07 13:06 | 37.84652 | 44.10586 | 35122 ft | 514 kts | 122° |
| 2026-05-07 13:06 | 37.81684 | 44.18802 | 35122 ft | 514 kts | 122° |
| 2026-05-07 13:07 | 37.78714 | 44.27001 | 35111 ft | 514 kts | 122° |
| 2026-05-07 13:07 | 37.75747 | 44.35171 | 35126 ft | 513 kts | 122° |
| 2026-05-07 13:08 | 37.73278 | 44.43733 | 35128 ft | 526 kts | 108° |
| 2026-05-07 13:08 | 37.71961 | 44.52868 | 35088 ft | 530 kts | 105° |
| 2026-05-07 13:09 | 37.70902 | 44.62083 | 35088 ft | 535 kts | 100° |
| 2026-05-07 13:09 | 37.70408 | 44.71444 | 35076 ft | 537 kts | 99° |
| 2026-05-07 13:10 | 37.69995 | 44.80878 | 35076 ft | 538 kts | 98° |
| 2026-05-07 13:10 | 37.69579 | 44.90305 | 35036 ft | 538 kts | 99° |
| 2026-05-07 13:11 | 37.69144 | 44.99705 | 35054 ft | 538 kts | 99° |
| 2026-05-07 13:11 | 37.68366 | 45.09035 | 35044 ft | 528 kts | 110° |
| 2026-05-07 13:12 | 37.66297 | 45.17890 | 35037 ft | 523 kts | 115° |
| 2026-05-07 13:12 | 37.64018 | 45.26528 | 35049 ft | 522 kts | 116° |
| 2026-05-07 13:13 | 37.61677 | 45.35235 | 35046 ft | 522 kts | 116° |
| 2026-05-07 13:13 | 37.59357 | 45.43912 | 35041 ft | 522 kts | 115° |
| 2026-05-07 13:14 | 37.57056 | 45.52565 | 35029 ft | 522 kts | 115° |
| 2026-05-07 13:14 | 37.54748 | 45.61218 | 35041 ft | 521 kts | 116° |
| 2026-05-07 13:15 | 37.52431 | 45.69858 | 35038 ft | 521 kts | 116° |
| 2026-05-07 13:15 | 37.50115 | 45.78510 | 35027 ft | 522 kts | 116° |
| 2026-05-07 13:16 | 37.47782 | 45.87195 | 35041 ft | 522 kts | 116° |
| 2026-05-07 13:16 | 37.45459 | 45.95814 | 35011 ft | 522 kts | 116° |
| 2026-05-07 13:17 | 37.43118 | 46.04471 | 34986 ft | 522 kts | 116° |
| 2026-05-07 13:17 | 37.40780 | 46.13094 | 34992 ft | 522 kts | 116° |
| 2026-05-07 13:18 | 37.38436 | 46.21704 | 34992 ft | 522 kts | 116° |
| 2026-05-07 13:18 | 37.36073 | 46.30360 | 34991 ft | 522 kts | 116° |
| 2026-05-07 13:19 | 37.33722 | 46.38942 | 35020 ft | 522 kts | 116° |
| 2026-05-07 13:19 | 37.31352 | 46.47568 | 35043 ft | 522 kts | 116° |
| 2026-05-07 13:20 | 37.28977 | 46.56182 | 35026 ft | 522 kts | 116° |
| 2026-05-07 13:20 | 37.26591 | 46.64807 | 35062 ft | 522 kts | 116° |
| 2026-05-07 13:21 | 37.24211 | 46.73384 | 35061 ft | 522 kts | 116° |
| 2026-05-07 13:21 | 37.21804 | 46.82033 | 35032 ft | 521 kts | 116° |
| 2026-05-07 13:22 | 37.19424 | 46.90556 | 35054 ft | 521 kts | 116° |
| 2026-05-07 13:22 | 37.17013 | 46.99163 | 35052 ft | 522 kts | 117° |
| 2026-05-07 13:23 | 37.14472 | 47.08207 | 35032 ft | 522 kts | 117° |
| 2026-05-07 13:23 | 37.12064 | 47.16749 | 35026 ft | 522 kts | 117° |
| 2026-05-07 13:24 | 37.09629 | 47.25362 | 35024 ft | 523 kts | 117° |
| 2026-05-07 13:24 | 37.07213 | 47.33881 | 35021 ft | 522 kts | 117° |
| 2026-05-07 13:25 | 37.04770 | 47.42492 | 35013 ft | 524 kts | 117° |
| 2026-05-07 13:25 | 37.02328 | 47.51079 | 34984 ft | 524 kts | 117° |
| 2026-05-07 13:26 | 36.99888 | 47.59637 | 34974 ft | 524 kts | 117° |
| 2026-05-07 13:26 | 36.97416 | 47.68272 | 34966 ft | 526 kts | 117° |
| 2026-05-07 13:27 | 36.94951 | 47.76862 | 34962 ft | 526 kts | 117° |
| 2026-05-07 13:27 | 36.92483 | 47.85441 | 34960 ft | 527 kts | 117° |
| 2026-05-07 13:28 | 36.89980 | 47.94102 | 34956 ft | 528 kts | 117° |
| 2026-05-07 13:28 | 36.87489 | 48.02704 | 34980 ft | 528 kts | 118° |
| 2026-05-07 13:29 | 36.84989 | 48.11311 | 35006 ft | 528 kts | 118° |
| 2026-05-07 13:29 | 36.82482 | 48.19908 | 35039 ft | 528 kts | 118° |
| 2026-05-07 13:30 | 36.79974 | 48.28486 | 35048 ft | 528 kts | 118° |
| 2026-05-07 13:30 | 36.77462 | 48.37040 | 35021 ft | 527 kts | 118° |
| 2026-05-07 13:31 | 36.74607 | 48.45437 | 35054 ft | 523 kts | 123° |
| 2026-05-07 13:31 | 36.71571 | 48.53662 | 35034 ft | 524 kts | 123° |
| 2026-05-07 13:32 | 36.68567 | 48.61920 | 35002 ft | 525 kts | 122° |
| 2026-05-07 13:32 | 36.65589 | 48.70257 | 35009 ft | 525 kts | 122° |
| 2026-05-07 13:33 | 36.62640 | 48.78538 | 35013 ft | 525 kts | 122° |
| 2026-05-07 13:33 | 36.59685 | 48.86824 | 35013 ft | 525 kts | 122° |
| 2026-05-07 13:34 | 36.55228 | 48.99214 | 35018 ft | 523 kts | 122° |
| 2026-05-07 13:35 | 36.52242 | 49.07477 | 35018 ft | 523 kts | 122° |
| 2026-05-07 13:35 | 36.49258 | 49.15711 | 35011 ft | 524 kts | 123° |
| 2026-05-07 13:36 | 36.46255 | 49.23983 | 35013 ft | 524 kts | 123° |
| 2026-05-07 13:36 | 36.43264 | 49.32206 | 35002 ft | 524 kts | 122° |
| 2026-05-07 13:37 | 36.40258 | 49.40446 | 35014 ft | 525 kts | 123° |
| 2026-05-07 13:37 | 36.37227 | 49.48729 | 35008 ft | 526 kts | 123° |
| 2026-05-07 13:38 | 36.34209 | 49.56962 | 34994 ft | 526 kts | 123° |
| 2026-05-07 13:38 | 36.31159 | 49.65255 | 34987 ft | 528 kts | 123° |
| 2026-05-07 13:39 | 36.28124 | 49.73484 | 34979 ft | 528 kts | 123° |
| 2026-05-07 13:39 | 36.25059 | 49.81779 | 34981 ft | 527 kts | 123° |
| 2026-05-07 13:40 | 36.22012 | 49.89999 | 34990 ft | 527 kts | 123° |
| 2026-05-07 13:40 | 36.18729 | 49.98021 | 34965 ft | 515 kts | 133° |
| 2026-05-07 13:41 | 36.14497 | 50.05098 | 34991 ft | 508 kts | 137° |
| 2026-05-07 13:41 | 36.10105 | 50.11934 | 34980 ft | 508 kts | 138° |
| 2026-05-07 13:42 | 36.05697 | 50.18712 | 34969 ft | 508 kts | 138° |
| 2026-05-07 13:42 | 36.01268 | 50.25547 | 34957 ft | 509 kts | 138° |
| 2026-05-07 13:43 | 35.96861 | 50.32359 | 34943 ft | 510 kts | 138° |
| 2026-05-07 13:43 | 35.92417 | 50.39240 | 34952 ft | 510 kts | 138° |
| 2026-05-07 13:44 | 35.87996 | 50.46067 | 34959 ft | 511 kts | 138° |
| 2026-05-07 13:44 | 35.83549 | 50.52914 | 34969 ft | 512 kts | 138° |
| 2026-05-07 13:45 | 35.79090 | 50.59771 | 34952 ft | 512 kts | 138° |
| 2026-05-07 13:45 | 35.74657 | 50.66575 | 34958 ft | 513 kts | 138° |
| 2026-05-07 13:46 | 35.70186 | 50.73421 | 34978 ft | 514 kts | 137° |
| 2026-05-07 13:46 | 35.65692 | 50.80300 | 34967 ft | 514 kts | 138° |
| 2026-05-07 13:47 | 35.61188 | 50.87169 | 34964 ft | 514 kts | 138° |
| 2026-05-07 13:47 | 35.56702 | 50.93992 | 34946 ft | 515 kts | 138° |
| 2026-05-07 13:48 | 35.52215 | 51.00807 | 34941 ft | 516 kts | 138° |
| 2026-05-07 13:48 | 35.47700 | 51.07654 | 34941 ft | 515 kts | 138° |
| 2026-05-07 13:49 | 35.43193 | 51.14477 | 34938 ft | 515 kts | 138° |
| 2026-05-07 13:49 | 35.39219 | 51.21940 | 34936 ft | 527 kts | 127° |
| 2026-05-07 13:50 | 35.35770 | 51.29845 | 34935 ft | 529 kts | 126° |
| 2026-05-07 13:50 | 35.32376 | 51.37862 | 34941 ft | 530 kts | 125° |
| 2026-05-07 13:51 | 35.28973 | 51.45859 | 34942 ft | 531 kts | 126° |
| 2026-05-07 13:51 | 35.25543 | 51.53852 | 34945 ft | 531 kts | 126° |
| 2026-05-07 13:52 | 35.22096 | 51.61846 | 34938 ft | 530 kts | 125° |
| 2026-05-07 13:52 | 35.18669 | 51.69775 | 34941 ft | 528 kts | 126° |
| 2026-05-07 13:53 | 35.15241 | 51.77686 | 34947 ft | 528 kts | 126° |
| 2026-05-07 13:53 | 35.11813 | 51.85580 | 34938 ft | 527 kts | 125° |
| 2026-05-07 13:54 | 35.08376 | 51.93478 | 34936 ft | 526 kts | 126° |
| 2026-05-07 13:54 | 35.05522 | 52.00020 | 34951 ft | 525 kts | 126° |
| 2026-05-07 13:55 | 35.01516 | 52.09186 | 34948 ft | 527 kts | 125° |
| 2026-05-07 13:55 | 34.98624 | 52.15794 | 34935 ft | 528 kts | 126° |
| 2026-05-07 13:56 | 34.95163 | 52.23682 | 34937 ft | 528 kts | 126° |
| 2026-05-07 13:56 | 34.91627 | 52.31534 | 34932 ft | 523 kts | 130° |
| 2026-05-07 13:56 | 34.89489 | 52.34998 | 34936 ft | 512 kts | 141° |
| 2026-05-07 13:57 | 34.87022 | 52.38110 | 34924 ft | 507 kts | 144° |
| 2026-05-07 13:57 | 34.81939 | 52.43998 | 34935 ft | 506 kts | 146° |
| 2026-05-07 13:58 | 34.76746 | 52.49822 | 34932 ft | 506 kts | 146° |
| 2026-05-07 13:58 | 34.71601 | 52.55604 | 34936 ft | 507 kts | 146° |
| 2026-05-07 13:59 | 34.66450 | 52.61419 | 34933 ft | 507 kts | 145° |
| 2026-05-07 13:59 | 34.61264 | 52.67281 | 34928 ft | 507 kts | 146° |
| 2026-05-07 14:00 | 34.56117 | 52.73090 | 34928 ft | 507 kts | 146° |
| 2026-05-07 14:00 | 34.50965 | 52.78889 | 34919 ft | 507 kts | 145° |
| 2026-05-07 14:01 | 34.45793 | 52.84698 | 34924 ft | 508 kts | 145° |
| 2026-05-07 14:01 | 34.40603 | 52.90520 | 34917 ft | 507 kts | 146° |
| 2026-05-07 14:02 | 34.35423 | 52.96320 | 34910 ft | 507 kts | 146° |
| 2026-05-07 14:02 | 34.30248 | 53.02105 | 34903 ft | 507 kts | 145° |
| 2026-05-07 14:03 | 34.25059 | 53.07894 | 34907 ft | 507 kts | 146° |
| 2026-05-07 14:03 | 34.19904 | 53.13635 | 34910 ft | 507 kts | 146° |
| 2026-05-07 14:04 | 34.14687 | 53.19435 | 34909 ft | 507 kts | 146° |
| 2026-05-07 14:04 | 34.09503 | 53.25188 | 34921 ft | 507 kts | 145° |
| 2026-05-07 14:05 | 34.04304 | 53.30945 | 34908 ft | 507 kts | 145° |
| 2026-05-07 14:05 | 33.99115 | 53.36686 | 34899 ft | 507 kts | 145° |
| 2026-05-07 14:06 | 33.93925 | 53.42415 | 34902 ft | 509 kts | 145° |
| 2026-05-07 14:06 | 33.88706 | 53.48166 | 34899 ft | 510 kts | 145° |
| 2026-05-07 14:07 | 33.83496 | 53.53899 | 34905 ft | 510 kts | 145° |
| 2026-05-07 14:07 | 33.78261 | 53.59651 | 34909 ft | 509 kts | 146° |
| 2026-05-07 14:08 | 33.73032 | 53.65385 | 34919 ft | 509 kts | 146° |
| 2026-05-07 14:08 | 33.67811 | 53.71099 | 34914 ft | 509 kts | 146° |
| 2026-05-07 14:09 | 33.62573 | 53.76823 | 34904 ft | 508 kts | 145° |
| 2026-05-07 14:09 | 33.57322 | 53.82548 | 34916 ft | 510 kts | 145° |
| 2026-05-07 14:10 | 33.52275 | 53.88538 | 34915 ft | 521 kts | 135° |
| 2026-05-07 14:10 | 33.48020 | 53.95585 | 34916 ft | 524 kts | 131° |
| 2026-05-07 14:11 | 33.43939 | 54.02801 | 34906 ft | 525 kts | 130° |
| 2026-05-07 14:11 | 33.39838 | 54.10088 | 34909 ft | 526 kts | 130° |
| 2026-05-07 14:12 | 33.35742 | 54.17309 | 34903 ft | 525 kts | 131° |
| 2026-05-07 14:12 | 33.31629 | 54.24516 | 34909 ft | 524 kts | 131° |
| 2026-05-07 14:13 | 33.27532 | 54.31672 | 34896 ft | 525 kts | 131° |
| 2026-05-07 14:13 | 33.23388 | 54.38895 | 34895 ft | 526 kts | 131° |
| 2026-05-07 14:14 | 33.19271 | 54.46062 | 34903 ft | 525 kts | 131° |
| 2026-05-07 14:14 | 33.15107 | 54.53295 | 34900 ft | 526 kts | 130° |
| 2026-05-07 14:15 | 33.10981 | 54.60449 | 34875 ft | 527 kts | 131° |
| 2026-05-07 14:15 | 33.06837 | 54.67623 | 34890 ft | 525 kts | 131° |
| 2026-05-07 14:16 | 33.02682 | 54.74801 | 34881 ft | 525 kts | 131° |
| 2026-05-07 14:16 | 32.98550 | 54.81923 | 34879 ft | 526 kts | 130° |
| 2026-05-07 14:17 | 32.94368 | 54.89117 | 34882 ft | 526 kts | 131° |
| 2026-05-07 14:17 | 32.90224 | 54.96236 | 34884 ft | 524 kts | 131° |
| 2026-05-07 14:18 | 32.86145 | 55.03427 | 34884 ft | 526 kts | 128° |
| 2026-05-07 14:18 | 32.82245 | 55.10783 | 34875 ft | 528 kts | 128° |
| 2026-05-07 14:19 | 32.78347 | 55.18155 | 34898 ft | 527 kts | 128° |
| 2026-05-07 14:19 | 32.74413 | 55.25500 | 34896 ft | 526 kts | 128° |
| 2026-05-07 14:20 | 32.70451 | 55.32836 | 34908 ft | 527 kts | 128° |
| 2026-05-07 14:20 | 32.66498 | 55.40136 | 34905 ft | 527 kts | 128° |
| 2026-05-07 14:21 | 32.62549 | 55.47424 | 34906 ft | 526 kts | 128° |
| 2026-05-07 14:21 | 32.58566 | 55.54742 | 34913 ft | 526 kts | 128° |
| 2026-05-07 14:22 | 32.54617 | 55.61992 | 34887 ft | 526 kts | 128° |
| 2026-05-07 14:22 | 32.50657 | 55.69247 | 34898 ft | 525 kts | 128° |
| 2026-05-07 14:23 | 32.46692 | 55.76500 | 34911 ft | 525 kts | 128° |
| 2026-05-07 14:23 | 32.42705 | 55.83774 | 34912 ft | 525 kts | 128° |
| 2026-05-07 14:24 | 32.38721 | 55.91031 | 34894 ft | 526 kts | 128° |
| 2026-05-07 14:24 | 32.34733 | 55.98286 | 34911 ft | 527 kts | 128° |
| 2026-05-07 14:25 | 32.30753 | 56.05513 | 34916 ft | 527 kts | 128° |
| 2026-05-07 14:25 | 32.26759 | 56.12748 | 34905 ft | 527 kts | 128° |
| 2026-05-07 14:26 | 32.22750 | 56.19997 | 34923 ft | 528 kts | 129° |
| 2026-05-07 14:26 | 32.18706 | 56.27294 | 34939 ft | 530 kts | 129° |
| 2026-05-07 14:27 | 32.14677 | 56.34550 | 34927 ft | 530 kts | 128° |
| 2026-05-07 14:27 | 32.10645 | 56.41801 | 34910 ft | 529 kts | 129° |
| 2026-05-07 14:28 | 32.06609 | 56.49041 | 34940 ft | 531 kts | 129° |
| 2026-05-07 14:28 | 32.02518 | 56.56368 | 34926 ft | 532 kts | 129° |
| 2026-05-07 14:29 | 31.98481 | 56.63587 | 34920 ft | 531 kts | 129° |
| 2026-05-07 14:29 | 31.94413 | 56.70853 | 34926 ft | 532 kts | 129° |
| 2026-05-07 14:30 | 31.90303 | 56.78170 | 34914 ft | 534 kts | 129° |
| 2026-05-07 14:30 | 31.86222 | 56.85425 | 34912 ft | 534 kts | 129° |
| 2026-05-07 14:31 | 31.82124 | 56.92699 | 34923 ft | 534 kts | 129° |
| 2026-05-07 14:31 | 31.78022 | 56.99968 | 34908 ft | 534 kts | 129° |
| 2026-05-07 14:32 | 31.73944 | 57.07248 | 34903 ft | 534 kts | 128° |
| 2026-05-07 14:32 | 31.69874 | 57.14529 | 34903 ft | 534 kts | 128° |
| 2026-05-07 14:33 | 31.65771 | 57.21853 | 34883 ft | 534 kts | 128° |
| 2026-05-07 14:33 | 31.61695 | 57.29106 | 34893 ft | 535 kts | 129° |
| 2026-05-07 14:34 | 31.57606 | 57.36367 | 34901 ft | 535 kts | 129° |
| 2026-05-07 14:34 | 31.53491 | 57.43660 | 34881 ft | 535 kts | 128° |
| 2026-05-07 14:35 | 31.49396 | 57.50906 | 34888 ft | 535 kts | 129° |
| 2026-05-07 14:35 | 31.45288 | 57.58160 | 34899 ft | 536 kts | 129° |
| 2026-05-07 14:36 | 31.41156 | 57.65441 | 34918 ft | 536 kts | 129° |
| 2026-05-07 14:36 | 31.37019 | 57.72720 | 34913 ft | 536 kts | 129° |
| 2026-05-07 14:37 | 31.32909 | 57.79938 | 34903 ft | 536 kts | 129° |
| 2026-05-07 14:37 | 31.26695 | 57.90822 | 34914 ft | 538 kts | 129° |
| 2026-05-07 14:38 | 31.22528 | 57.98105 | 34912 ft | 538 kts | 129° |
| 2026-05-07 14:38 | 31.18379 | 58.05344 | 34884 ft | 539 kts | 129° |
| 2026-05-07 14:39 | 31.14200 | 58.12620 | 34900 ft | 539 kts | 129° |
| 2026-05-07 14:39 | 31.10008 | 58.19907 | 34900 ft | 540 kts | 129° |
| 2026-05-07 14:40 | 31.05830 | 58.27156 | 34896 ft | 540 kts | 129° |
| 2026-05-07 14:40 | 31.01653 | 58.34388 | 34884 ft | 540 kts | 129° |
| 2026-05-07 14:41 | 30.97465 | 58.41627 | 34897 ft | 541 kts | 129° |
| 2026-05-07 14:41 | 30.93239 | 58.48918 | 34904 ft | 541 kts | 129° |
| 2026-05-07 14:42 | 30.89019 | 58.56184 | 34889 ft | 542 kts | 129° |
| 2026-05-07 14:42 | 30.84793 | 58.63448 | 34887 ft | 543 kts | 129° |
| 2026-05-07 14:43 | 30.80573 | 58.70689 | 34900 ft | 543 kts | 129° |
| 2026-05-07 14:43 | 30.76313 | 58.77986 | 34901 ft | 543 kts | 129° |
| 2026-05-07 14:44 | 30.72073 | 58.85236 | 34902 ft | 543 kts | 129° |
| 2026-05-07 14:44 | 30.67823 | 58.92473 | 34882 ft | 543 kts | 129° |
| 2026-05-07 14:45 | 30.63569 | 58.99694 | 34896 ft | 543 kts | 129° |
| 2026-05-07 14:45 | 30.59273 | 59.06976 | 34900 ft | 544 kts | 129° |
| 2026-05-07 14:46 | 30.55004 | 59.14203 | 34895 ft | 544 kts | 129° |
| 2026-05-07 14:46 | 30.50743 | 59.21405 | 34900 ft | 544 kts | 129° |
| 2026-05-07 14:47 | 30.46456 | 59.28638 | 34910 ft | 544 kts | 129° |
| 2026-05-07 14:47 | 30.42177 | 59.35843 | 34909 ft | 544 kts | 129° |
| 2026-05-07 14:48 | 30.37854 | 59.43108 | 34916 ft | 545 kts | 129° |
| 2026-05-07 14:48 | 30.33555 | 59.50320 | 34912 ft | 546 kts | 129° |
| 2026-05-07 14:49 | 30.29258 | 59.57517 | 34931 ft | 546 kts | 129° |
| 2026-05-07 14:49 | 30.24926 | 59.64760 | 34934 ft | 547 kts | 129° |
| 2026-05-07 14:50 | 30.20584 | 59.72005 | 34951 ft | 548 kts | 129° |
| 2026-05-07 14:50 | 30.16263 | 59.79204 | 34953 ft | 547 kts | 129° |
| 2026-05-07 14:51 | 30.11923 | 59.86420 | 34968 ft | 547 kts | 129° |
| 2026-05-07 14:51 | 30.07596 | 59.93612 | 34970 ft | 548 kts | 130° |
| 2026-05-07 14:52 | 30.03218 | 60.00851 | 34986 ft | 549 kts | 130° |
| 2026-05-07 14:52 | 29.98870 | 60.08031 | 34981 ft | 548 kts | 130° |
| 2026-05-07 14:53 | 29.94492 | 60.15250 | 35000 ft | 547 kts | 129° |
| 2026-05-07 14:53 | 29.90137 | 60.22421 | 35002 ft | 547 kts | 129° |
| 2026-05-07 14:54 | 29.85784 | 60.29576 | 35004 ft | 547 kts | 129° |
| 2026-05-07 14:54 | 29.81413 | 60.36748 | 35001 ft | 547 kts | 129° |
| 2026-05-07 14:55 | 29.77030 | 60.43930 | 35004 ft | 547 kts | 129° |
| 2026-05-07 14:55 | 29.72673 | 60.51066 | 35015 ft | 547 kts | 129° |
| 2026-05-07 14:56 | 29.68311 | 60.58197 | 35006 ft | 546 kts | 129° |
| 2026-05-07 14:56 | 29.63942 | 60.65328 | 35000 ft | 546 kts | 129° |
| 2026-05-07 14:57 | 29.59555 | 60.72475 | 35010 ft | 545 kts | 129° |
| 2026-05-07 14:57 | 29.55196 | 60.79565 | 35003 ft | 546 kts | 129° |
| 2026-05-07 14:58 | 29.50804 | 60.86698 | 35023 ft | 545 kts | 129° |
| 2026-05-07 14:58 | 29.45825 | 60.93124 | 35011 ft | 536 kts | 141° |
| 2026-05-07 14:59 | 29.40388 | 60.98966 | 34978 ft | 535 kts | 143° |
| 2026-05-07 14:59 | 29.34902 | 61.04691 | 35005 ft | 535 kts | 143° |
| 2026-05-07 15:00 | 29.29375 | 61.10452 | 34964 ft | 537 kts | 143° |
| 2026-05-07 15:00 | 29.23898 | 61.16179 | 34969 ft | 537 kts | 143° |
| 2026-05-07 15:01 | 29.18377 | 61.21958 | 34944 ft | 537 kts | 143° |
| 2026-05-07 15:01 | 29.12864 | 61.27721 | 34944 ft | 536 kts | 143° |
| 2026-05-07 15:02 | 29.07371 | 61.33456 | 34947 ft | 536 kts | 143° |
| 2026-05-07 15:02 | 29.01867 | 61.39169 | 34923 ft | 535 kts | 142° |
| 2026-05-07 15:03 | 28.96343 | 61.44898 | 34923 ft | 535 kts | 142° |
| 2026-05-07 15:03 | 28.90842 | 61.50598 | 34896 ft | 535 kts | 142° |
| 2026-05-07 15:04 | 28.85326 | 61.56306 | 34880 ft | 534 kts | 142° |
| 2026-05-07 15:04 | 28.79829 | 61.61986 | 34871 ft | 534 kts | 142° |
| 2026-05-07 15:05 | 28.74322 | 61.67669 | 34870 ft | 533 kts | 142° |
| 2026-05-07 15:05 | 28.68833 | 61.73324 | 34848 ft | 534 kts | 142° |
| 2026-05-07 15:06 | 28.64244 | 61.78045 | 34842 ft | 534 kts | 142° |
| 2026-05-07 15:06 | 28.58755 | 61.83684 | 34856 ft | 534 kts | 142° |
| 2026-05-07 15:07 | 28.52324 | 61.90281 | 34859 ft | 534 kts | 142° |
| 2026-05-07 15:07 | 28.47721 | 61.94996 | 34842 ft | 534 kts | 142° |
| 2026-05-07 15:08 | 28.42179 | 62.00664 | 34849 ft | 535 kts | 142° |
| 2026-05-07 15:08 | 28.36675 | 62.06285 | 34829 ft | 534 kts | 142° |
| 2026-05-07 15:09 | 28.31160 | 62.11912 | 34849 ft | 533 kts | 142° |
| 2026-05-07 15:09 | 28.25616 | 62.17558 | 34834 ft | 533 kts | 142° |
| 2026-05-07 15:10 | 28.20097 | 62.23171 | 34838 ft | 533 kts | 142° |
| 2026-05-07 15:10 | 28.14576 | 62.28777 | 34823 ft | 534 kts | 142° |
| 2026-05-07 15:11 | 28.09064 | 62.34366 | 34821 ft | 534 kts | 142° |
| 2026-05-07 15:11 | 28.03521 | 62.39979 | 34821 ft | 535 kts | 142° |
| 2026-05-07 15:12 | 27.97975 | 62.45586 | 34799 ft | 534 kts | 142° |
| 2026-05-07 15:12 | 27.92471 | 62.51145 | 34804 ft | 532 kts | 142° |
| 2026-05-07 15:13 | 27.86933 | 62.56727 | 34788 ft | 533 kts | 142° |
| 2026-05-07 15:13 | 27.81382 | 62.62315 | 34799 ft | 533 kts | 142° |
| 2026-05-07 15:14 | 27.75865 | 62.67862 | 34768 ft | 533 kts | 142° |
| 2026-05-07 15:14 | 27.70344 | 62.73406 | 34784 ft | 533 kts | 142° |
| 2026-05-07 15:15 | 27.64775 | 62.78988 | 34789 ft | 533 kts | 142° |
| 2026-05-07 15:15 | 27.59593 | 62.84944 | 34782 ft | 539 kts | 128° |
| 2026-05-07 15:16 | 27.55669 | 62.92179 | 34783 ft | 542 kts | 121° |
| 2026-05-07 15:16 | 27.52039 | 62.99601 | 34785 ft | 541 kts | 120° |
| 2026-05-07 15:17 | 27.48430 | 63.07052 | 34792 ft | 541 kts | 120° |
| 2026-05-07 15:17 | 27.44814 | 63.14435 | 34793 ft | 541 kts | 120° |
| 2026-05-07 15:18 | 27.41175 | 63.21811 | 34789 ft | 542 kts | 120° |
| 2026-05-07 15:18 | 27.37483 | 63.29271 | 34784 ft | 542 kts | 120° |
| 2026-05-07 15:19 | 27.33844 | 63.36614 | 34796 ft | 539 kts | 120° |
| 2026-05-07 15:19 | 27.30186 | 63.43985 | 34793 ft | 539 kts | 120° |
| 2026-05-07 15:20 | 27.26540 | 63.51319 | 34785 ft | 540 kts | 120° |
| 2026-05-07 15:20 | 27.22858 | 63.58713 | 34786 ft | 541 kts | 120° |
| 2026-05-07 15:21 | 27.19197 | 63.66054 | 34770 ft | 541 kts | 120° |
| 2026-05-07 15:21 | 27.15501 | 63.73449 | 34785 ft | 539 kts | 120° |
| 2026-05-07 15:22 | 27.11842 | 63.80759 | 34780 ft | 540 kts | 120° |
| 2026-05-07 15:22 | 27.08169 | 63.88085 | 34799 ft | 541 kts | 120° |
| 2026-05-07 15:23 | 27.04467 | 63.95457 | 34799 ft | 541 kts | 120° |
| 2026-05-07 15:23 | 27.00786 | 64.02772 | 34807 ft | 541 kts | 120° |
| 2026-05-07 15:24 | 26.97089 | 64.10075 | 34800 ft | 540 kts | 122° |
| 2026-05-07 15:24 | 26.94895 | 64.13500 | 34811 ft | 537 kts | 133° |
| 2026-05-07 15:24 | 26.92299 | 64.16427 | 34818 ft | 533 kts | 141° |
| 2026-05-07 15:25 | 26.86672 | 64.21884 | 34810 ft | 533 kts | 143° |
| 2026-05-07 15:25 | 26.80979 | 64.27141 | 34812 ft | 533 kts | 143° |
| 2026-05-07 15:26 | 26.75271 | 64.32411 | 34796 ft | 532 kts | 143° |
| 2026-05-07 15:26 | 26.69577 | 64.37703 | 34812 ft | 529 kts | 143° |
| 2026-05-07 15:27 | 26.63934 | 64.42955 | 34802 ft | 531 kts | 143° |
| 2026-05-07 15:27 | 26.58238 | 64.48251 | 34792 ft | 532 kts | 143° |
| 2026-05-07 15:28 | 26.52564 | 64.53521 | 34789 ft | 532 kts | 143° |
| 2026-05-07 15:28 | 26.46910 | 64.58765 | 34786 ft | 529 kts | 143° |
| 2026-05-07 15:29 | 26.41263 | 64.63993 | 34783 ft | 528 kts | 143° |
| 2026-05-07 15:29 | 26.35578 | 64.69249 | 34774 ft | 528 kts | 143° |
| 2026-05-07 15:30 | 26.29942 | 64.74454 | 34747 ft | 529 kts | 143° |
| 2026-05-07 15:30 | 26.24273 | 64.79683 | 34767 ft | 526 kts | 143° |
| 2026-05-07 15:31 | 26.18684 | 64.84831 | 34762 ft | 524 kts | 143° |
| 2026-05-07 15:31 | 26.13047 | 64.90016 | 34759 ft | 524 kts | 143° |
| 2026-05-07 15:32 | 26.07434 | 64.95171 | 34753 ft | 524 kts | 143° |
| 2026-05-07 15:32 | 26.01827 | 65.00316 | 34754 ft | 525 kts | 143° |
| 2026-05-07 15:33 | 25.96571 | 65.06008 | 34755 ft | 529 kts | 128° |
| 2026-05-07 15:33 | 25.92752 | 65.12968 | 34749 ft | 531 kts | 120° |
| 2026-05-07 15:34 | 25.89252 | 65.20202 | 34748 ft | 531 kts | 118° |
| 2026-05-07 15:34 | 25.85814 | 65.27403 | 34743 ft | 532 kts | 118° |
| 2026-05-07 15:35 | 25.82310 | 65.34660 | 34749 ft | 531 kts | 118° |
| 2026-05-07 15:35 | 25.78815 | 65.41839 | 34746 ft | 530 kts | 119° |
| 2026-05-07 15:36 | 25.75306 | 65.49022 | 34746 ft | 530 kts | 119° |
| 2026-05-07 15:36 | 25.71789 | 65.56214 | 34745 ft | 530 kts | 119° |
| 2026-05-07 15:37 | 25.68281 | 65.63377 | 34750 ft | 530 kts | 119° |
| 2026-05-07 15:37 | 25.64762 | 65.70551 | 34748 ft | 530 kts | 119° |
| 2026-05-07 15:38 | 25.61245 | 65.77711 | 34750 ft | 530 kts | 118° |
| 2026-05-07 15:38 | 25.57704 | 65.84908 | 34752 ft | 530 kts | 118° |
| 2026-05-07 15:39 | 25.54176 | 65.92064 | 34747 ft | 530 kts | 119° |
| 2026-05-07 15:39 | 25.50655 | 65.99201 | 34748 ft | 531 kts | 118° |
| 2026-05-07 15:40 | 25.47112 | 66.06370 | 34751 ft | 531 kts | 119° |
| 2026-05-07 15:40 | 25.43564 | 66.13538 | 34749 ft | 531 kts | 119° |
| 2026-05-07 15:41 | 25.40023 | 66.20679 | 34750 ft | 530 kts | 119° |
| 2026-05-07 15:41 | 25.36484 | 66.27806 | 34758 ft | 530 kts | 118° |
| 2026-05-07 15:42 | 25.32928 | 66.34954 | 34757 ft | 532 kts | 119° |
| 2026-05-07 15:42 | 25.29369 | 66.42099 | 34760 ft | 532 kts | 119° |
| 2026-05-07 15:43 | 25.25815 | 66.49221 | 34761 ft | 532 kts | 119° |
| 2026-05-07 15:43 | 25.22242 | 66.56372 | 34770 ft | 532 kts | 119° |
| 2026-05-07 15:44 | 25.18658 | 66.63535 | 34767 ft | 531 kts | 119° |
| 2026-05-07 15:44 | 25.15092 | 66.70662 | 34778 ft | 531 kts | 119° |
| 2026-05-07 15:45 | 25.11521 | 66.77793 | 34783 ft | 531 kts | 119° |
| 2026-05-07 15:45 | 25.07952 | 66.84906 | 34782 ft | 531 kts | 119° |
| 2026-05-07 15:46 | 25.02583 | 66.95584 | 34780 ft | 533 kts | 119° |
| 2026-05-07 15:47 | 24.98976 | 67.02746 | 34772 ft | 533 kts | 119° |
| 2026-05-07 15:47 | 24.95392 | 67.09851 | 34774 ft | 532 kts | 119° |
| 2026-05-07 15:48 | 24.91785 | 67.16990 | 34775 ft | 532 kts | 119° |
| 2026-05-07 15:48 | 24.88225 | 67.24097 | 34773 ft | 532 kts | 118° |
| 2026-05-07 15:49 | 24.84676 | 67.31276 | 34778 ft | 533 kts | 118° |
| 2026-05-07 15:49 | 24.81130 | 67.38437 | 34778 ft | 533 kts | 118° |
| 2026-05-07 15:50 | 24.77597 | 67.45543 | 34786 ft | 532 kts | 118° |
| 2026-05-07 15:50 | 24.74036 | 67.52688 | 34789 ft | 530 kts | 118° |
| 2026-05-07 15:51 | 24.70493 | 67.59787 | 34780 ft | 531 kts | 118° |
| 2026-05-07 15:51 | 24.66953 | 67.66902 | 34782 ft | 532 kts | 118° |
| 2026-05-07 15:52 | 24.63392 | 67.74062 | 34786 ft | 532 kts | 118° |
| 2026-05-07 15:52 | 24.59847 | 67.81177 | 34786 ft | 532 kts | 118° |
| 2026-05-07 15:53 | 24.56293 | 67.88295 | 34780 ft | 532 kts | 118° |
| 2026-05-07 15:53 | 24.52731 | 67.95417 | 34783 ft | 531 kts | 119° |
| 2026-05-07 15:54 | 24.49185 | 68.02498 | 34771 ft | 530 kts | 119° |
| 2026-05-07 15:54 | 24.45640 | 68.09563 | 34788 ft | 530 kts | 119° |
| 2026-05-07 15:55 | 24.42086 | 68.16638 | 34790 ft | 530 kts | 119° |
| 2026-05-07 15:55 | 24.38508 | 68.23750 | 34793 ft | 531 kts | 119° |
| 2026-05-07 15:56 | 24.34950 | 68.30811 | 34781 ft | 531 kts | 119° |
| 2026-05-07 15:56 | 24.31380 | 68.37886 | 34783 ft | 530 kts | 119° |
| 2026-05-07 15:57 | 24.27804 | 68.44964 | 34793 ft | 529 kts | 119° |
| 2026-05-07 15:57 | 24.24239 | 68.52007 | 34790 ft | 529 kts | 119° |
| 2026-05-07 15:58 | 24.20672 | 68.59044 | 34792 ft | 530 kts | 119° |
| 2026-05-07 15:58 | 24.17094 | 68.66095 | 34802 ft | 531 kts | 119° |
| 2026-05-07 15:59 | 24.13581 | 68.73212 | 34796 ft | 531 kts | 113° |
| 2026-05-07 15:59 | 24.11750 | 68.80951 | 34794 ft | 526 kts | 91° |
| 2026-05-07 16:00 | 24.11448 | 68.88922 | 34794 ft | 525 kts | 89° |
| 2026-05-07 16:00 | 24.11380 | 68.96947 | 34804 ft | 525 kts | 88° |
| 2026-05-07 16:01 | 24.11311 | 69.04895 | 34803 ft | 525 kts | 88° |
| 2026-05-07 16:01 | 24.11204 | 69.12925 | 34801 ft | 525 kts | 89° |
| 2026-05-07 16:02 | 24.11078 | 69.20897 | 34804 ft | 525 kts | 89° |
| 2026-05-07 16:02 | 24.10945 | 69.28872 | 34799 ft | 526 kts | 89° |
| 2026-05-07 16:03 | 24.10808 | 69.36901 | 34802 ft | 527 kts | 89° |
| 2026-05-07 16:03 | 24.10668 | 69.44885 | 34799 ft | 527 kts | 89° |
| 2026-05-07 16:04 | 24.10524 | 69.52922 | 34802 ft | 527 kts | 89° |
| 2026-05-07 16:04 | 24.10376 | 69.60910 | 34804 ft | 527 kts | 89° |
| 2026-05-07 16:05 | 24.10225 | 69.68908 | 34803 ft | 528 kts | 89° |
| 2026-05-07 16:05 | 24.10067 | 69.76965 | 34792 ft | 528 kts | 89° |
| 2026-05-07 16:06 | 24.09907 | 69.84953 | 34799 ft | 528 kts | 89° |
| 2026-05-07 16:06 | 24.09741 | 69.93006 | 34795 ft | 528 kts | 89° |
| 2026-05-07 16:07 | 24.09572 | 70.01018 | 34794 ft | 529 kts | 89° |
| 2026-05-07 16:07 | 24.09399 | 70.09056 | 34787 ft | 529 kts | 89° |
| 2026-05-07 16:08 | 24.09220 | 70.17120 | 34788 ft | 529 kts | 89° |
| 2026-05-07 16:08 | 24.09038 | 70.25140 | 34788 ft | 529 kts | 88° |
| 2026-05-07 16:09 | 24.08852 | 70.33173 | 34789 ft | 530 kts | 88° |
| 2026-05-07 16:09 | 24.08662 | 70.41217 | 34783 ft | 530 kts | 89° |
| 2026-05-07 16:10 | 24.08466 | 70.49274 | 34786 ft | 530 kts | 89° |
| 2026-05-07 16:10 | 24.08267 | 70.57329 | 34790 ft | 530 kts | 88° |
| 2026-05-07 16:11 | 24.08062 | 70.65436 | 34780 ft | 531 kts | 88° |
| 2026-05-07 16:11 | 24.07854 | 70.73481 | 34780 ft | 531 kts | 89° |
| 2026-05-07 16:12 | 24.07641 | 70.81577 | 34777 ft | 531 kts | 89° |
| 2026-05-07 16:12 | 24.07425 | 70.89617 | 34778 ft | 531 kts | 89° |
| 2026-05-07 16:13 | 24.07205 | 70.97659 | 34772 ft | 532 kts | 89° |
| 2026-05-07 16:13 | 24.06984 | 71.05754 | 34764 ft | 532 kts | 89° |
| 2026-05-07 16:14 | 24.06755 | 71.13844 | 34767 ft | 532 kts | 89° |
| 2026-05-07 16:14 | 24.06522 | 71.21895 | 34763 ft | 532 kts | 89° |
| 2026-05-07 16:15 | 24.06284 | 71.29997 | 34764 ft | 532 kts | 89° |
| 2026-05-07 16:15 | 24.06044 | 71.38060 | 34764 ft | 532 kts | 89° |
| 2026-05-07 16:16 | 24.05798 | 71.46166 | 34766 ft | 532 kts | 89° |
| 2026-05-07 16:16 | 24.05550 | 71.54210 | 34766 ft | 532 kts | 89° |
| 2026-05-07 16:17 | 24.05297 | 71.62328 | 34760 ft | 534 kts | 89° |
| 2026-05-07 16:17 | 24.05039 | 71.70409 | 34760 ft | 535 kts | 89° |
| 2026-05-07 16:18 | 24.04775 | 71.78547 | 34765 ft | 535 kts | 89° |
| 2026-05-07 16:18 | 24.04506 | 71.86697 | 34765 ft | 535 kts | 89° |
| 2026-05-07 16:19 | 24.04236 | 71.94783 | 34764 ft | 535 kts | 89° |
| 2026-05-07 16:19 | 24.03958 | 72.02946 | 34762 ft | 536 kts | 89° |
| 2026-05-07 16:20 | 24.03678 | 72.11052 | 34769 ft | 536 kts | 89° |
| 2026-05-07 16:20 | 24.03392 | 72.19212 | 34779 ft | 536 kts | 89° |
| 2026-05-07 16:21 | 24.03103 | 72.27336 | 34797 ft | 536 kts | 89° |
| 2026-05-07 16:21 | 24.02809 | 72.35474 | 34786 ft | 537 kts | 89° |
| 2026-05-07 16:22 | 24.02510 | 72.43654 | 34787 ft | 537 kts | 89° |
| 2026-05-07 16:22 | 24.02207 | 72.51805 | 34798 ft | 537 kts | 89° |
| 2026-05-07 16:23 | 24.01900 | 72.59938 | 34804 ft | 537 kts | 89° |
| 2026-05-07 16:23 | 24.01591 | 72.68109 | 34802 ft | 537 kts | 89° |
| 2026-05-07 16:24 | 24.01598 | 72.76223 | 34792 ft | 535 kts | 85° |
| 2026-05-07 16:24 | 24.01795 | 72.84335 | 34812 ft | 535 kts | 85° |
| 2026-05-07 16:25 | 24.01951 | 72.92449 | 34809 ft | 535 kts | 86° |
| 2026-05-07 16:25 | 24.02042 | 72.99252 | 34810 ft | 536 kts | 86° |
| 2026-05-07 16:26 | 24.02143 | 73.08754 | 34807 ft | 536 kts | 86° |
| 2026-05-07 16:26 | 24.02209 | 73.15536 | 34829 ft | 536 kts | 86° |
| 2026-05-07 16:27 | 24.02287 | 73.23678 | 34831 ft | 536 kts | 86° |
| 2026-05-07 16:27 | 24.02362 | 73.31866 | 34831 ft | 536 kts | 86° |
| 2026-05-07 16:28 | 24.02444 | 73.41337 | 34836 ft | 537 kts | 86° |
| 2026-05-07 16:28 | 24.02500 | 73.48173 | 34839 ft | 537 kts | 86° |
| 2026-05-07 16:29 | 24.02562 | 73.56306 | 34839 ft | 537 kts | 86° |
| 2026-05-07 16:29 | 24.02629 | 73.65826 | 34848 ft | 537 kts | 86° |
| 2026-05-07 16:30 | 24.02674 | 73.72664 | 34839 ft | 538 kts | 86° |
| 2026-05-07 16:30 | 24.02728 | 73.80840 | 34841 ft | 538 kts | 86° |
| 2026-05-07 16:31 | 24.02773 | 73.89029 | 34843 ft | 538 kts | 86° |
| 2026-05-07 16:31 | 24.02814 | 73.97165 | 34830 ft | 538 kts | 86° |
| 2026-05-07 16:32 | 24.02852 | 74.05386 | 34831 ft | 538 kts | 86° |
| 2026-05-07 16:32 | 24.02913 | 74.13540 | 34834 ft | 538 kts | 85° |
| 2026-05-07 16:33 | 24.03042 | 74.21713 | 34846 ft | 538 kts | 85° |
| 2026-05-07 16:33 | 24.03173 | 74.29859 | 34845 ft | 538 kts | 85° |
| 2026-05-07 16:34 | 24.03289 | 74.38050 | 34858 ft | 538 kts | 85° |
| 2026-05-07 16:34 | 24.03396 | 74.46252 | 34851 ft | 538 kts | 85° |
| 2026-05-07 16:35 | 24.03496 | 74.54400 | 34859 ft | 538 kts | 85° |
| 2026-05-07 16:35 | 24.03594 | 74.62572 | 34860 ft | 538 kts | 85° |
| 2026-05-07 16:36 | 24.03671 | 74.70803 | 34859 ft | 540 kts | 88° |
| 2026-05-07 16:36 | 24.02437 | 74.78913 | 34863 ft | 545 kts | 103° |
| 2026-05-07 16:37 | 24.00311 | 74.86861 | 34867 ft | 546 kts | 105° |
| 2026-05-07 16:37 | 23.98034 | 74.94797 | 34866 ft | 546 kts | 106° |
| 2026-05-07 16:38 | 23.95764 | 75.02718 | 34844 ft | 546 kts | 106° |
| 2026-05-07 16:38 | 23.93523 | 75.10614 | 34862 ft | 546 kts | 105° |
| 2026-05-07 16:39 | 23.91289 | 75.18505 | 34867 ft | 545 kts | 106° |
| 2026-05-07 16:39 | 23.89040 | 75.26439 | 34867 ft | 545 kts | 106° |
| 2026-05-07 16:40 | 23.86799 | 75.34323 | 34865 ft | 545 kts | 106° |
| 2026-05-07 16:40 | 23.84551 | 75.42211 | 34867 ft | 545 kts | 106° |
| 2026-05-07 16:41 | 23.82303 | 75.50084 | 34871 ft | 545 kts | 106° |
| 2026-05-07 16:41 | 23.80032 | 75.58020 | 34874 ft | 546 kts | 106° |
| 2026-05-07 16:42 | 23.77775 | 75.65888 | 34872 ft | 546 kts | 106° |
| 2026-05-07 16:42 | 23.75500 | 75.73806 | 34873 ft | 546 kts | 106° |
| 2026-05-07 16:43 | 23.73236 | 75.81667 | 34882 ft | 546 kts | 106° |
| 2026-05-07 16:43 | 23.70943 | 75.89615 | 34880 ft | 546 kts | 107° |
| 2026-05-07 16:44 | 23.68660 | 75.97509 | 34882 ft | 546 kts | 107° |
| 2026-05-07 16:44 | 23.66387 | 76.05356 | 34884 ft | 546 kts | 107° |
| 2026-05-07 16:45 | 23.64079 | 76.13251 | 34887 ft | 546 kts | 107° |
| 2026-05-07 16:45 | 23.61772 | 76.21120 | 34890 ft | 546 kts | 107° |
| 2026-05-07 16:46 | 23.59462 | 76.28991 | 34888 ft | 546 kts | 107° |
| 2026-05-07 16:46 | 23.57149 | 76.36864 | 34888 ft | 546 kts | 107° |
| 2026-05-07 16:47 | 23.54822 | 76.44769 | 34889 ft | 546 kts | 107° |
| 2026-05-07 16:47 | 23.52510 | 76.52609 | 34894 ft | 546 kts | 107° |
| 2026-05-07 16:48 | 23.50176 | 76.60507 | 34898 ft | 547 kts | 107° |
| 2026-05-07 16:48 | 23.47839 | 76.68398 | 34893 ft | 546 kts | 108° |
| 2026-05-07 16:49 | 23.45512 | 76.76238 | 34898 ft | 545 kts | 108° |
| 2026-05-07 16:49 | 23.43185 | 76.84060 | 34906 ft | 545 kts | 108° |
| 2026-05-07 16:50 | 23.40852 | 76.91891 | 34907 ft | 545 kts | 108° |
| 2026-05-07 16:50 | 23.38499 | 76.99768 | 34906 ft | 546 kts | 108° |
| 2026-05-07 16:51 | 23.36159 | 77.07591 | 34911 ft | 546 kts | 108° |
| 2026-05-07 16:51 | 23.33797 | 77.15468 | 34914 ft | 546 kts | 108° |
| 2026-05-07 16:52 | 23.31450 | 77.23281 | 34921 ft | 546 kts | 108° |
| 2026-05-07 16:52 | 23.29122 | 77.31138 | 34908 ft | 547 kts | 104° |
| 2026-05-07 16:53 | 23.28082 | 77.39302 | 34911 ft | 545 kts | 92° |
| 2026-05-07 16:53 | 23.27686 | 77.47548 | 34912 ft | 545 kts | 90° |
| 2026-05-07 16:54 | 23.27390 | 77.55746 | 34915 ft | 545 kts | 90° |
| 2026-05-07 16:54 | 23.27075 | 77.63975 | 34918 ft | 546 kts | 91° |
| 2026-05-07 16:55 | 23.26731 | 77.72253 | 34915 ft | 546 kts | 91° |
| 2026-05-07 16:55 | 23.26376 | 77.80476 | 34915 ft | 545 kts | 91° |
| 2026-05-07 16:56 | 23.26017 | 77.88683 | 34915 ft | 544 kts | 91° |
| 2026-05-07 16:56 | 23.25472 | 78.01038 | 34913 ft | 545 kts | 91° |
| 2026-05-07 16:57 | 23.25103 | 78.09270 | 34910 ft | 546 kts | 91° |
| 2026-05-07 16:57 | 23.24732 | 78.17464 | 34911 ft | 546 kts | 91° |
| 2026-05-07 16:58 | 23.24354 | 78.25708 | 34917 ft | 546 kts | 92° |
| 2026-05-07 16:58 | 23.23972 | 78.33949 | 34917 ft | 546 kts | 92° |
| 2026-05-07 16:59 | 23.23587 | 78.42147 | 34912 ft | 546 kts | 92° |
| 2026-05-07 16:59 | 23.23197 | 78.50383 | 34914 ft | 546 kts | 92° |
| 2026-05-07 17:00 | 23.22802 | 78.58626 | 34917 ft | 546 kts | 92° |
| 2026-05-07 17:00 | 23.22403 | 78.66863 | 34917 ft | 546 kts | 92° |
| 2026-05-07 17:01 | 23.22003 | 78.75068 | 34912 ft | 546 kts | 92° |
| 2026-05-07 17:01 | 23.21813 | 78.83335 | 34908 ft | 546 kts | 89° |
| 2026-05-07 17:02 | 23.21756 | 78.91575 | 34900 ft | 546 kts | 89° |
| 2026-05-07 17:02 | 23.21673 | 78.99846 | 34896 ft | 546 kts | 90° |
| 2026-05-07 17:03 | 23.21554 | 79.08076 | 34902 ft | 546 kts | 90° |
| 2026-05-07 17:03 | 23.21419 | 79.16335 | 34894 ft | 547 kts | 90° |
| 2026-05-07 17:04 | 23.21278 | 79.24623 | 34895 ft | 547 kts | 90° |
| 2026-05-07 17:04 | 23.21135 | 79.32849 | 34896 ft | 547 kts | 90° |
| 2026-05-07 17:05 | 23.20987 | 79.41128 | 34893 ft | 547 kts | 90° |
| 2026-05-07 17:05 | 23.20837 | 79.49365 | 34889 ft | 547 kts | 90° |
| 2026-05-07 17:06 | 23.20681 | 79.57625 | 34886 ft | 547 kts | 90° |
| 2026-05-07 17:06 | 23.20392 | 79.65920 | 34886 ft | 548 kts | 92° |
| 2026-05-07 17:07 | 23.20003 | 79.74160 | 34884 ft | 548 kts | 92° |
| 2026-05-07 17:07 | 23.19620 | 79.82455 | 34886 ft | 548 kts | 92° |
| 2026-05-07 17:08 | 23.19256 | 79.90727 | 34884 ft | 549 kts | 92° |
| 2026-05-07 17:08 | 23.18895 | 79.99013 | 34883 ft | 549 kts | 92° |
| 2026-05-07 17:09 | 23.18533 | 80.07251 | 34886 ft | 549 kts | 92° |
| 2026-05-07 17:09 | 23.18127 | 80.15543 | 34886 ft | 549 kts | 93° |
| 2026-05-07 17:10 | 23.17684 | 80.23825 | 34892 ft | 550 kts | 93° |
| 2026-05-07 17:10 | 23.17241 | 80.32133 | 34898 ft | 550 kts | 93° |
| 2026-05-07 17:11 | 23.16804 | 80.40391 | 34894 ft | 550 kts | 93° |
| 2026-05-07 17:11 | 23.16363 | 80.48683 | 34903 ft | 550 kts | 93° |
| 2026-05-07 17:12 | 23.15917 | 80.56989 | 34906 ft | 551 kts | 93° |
| 2026-05-07 17:12 | 23.15466 | 80.65302 | 34900 ft | 552 kts | 94° |
| 2026-05-07 17:13 | 23.15010 | 80.73629 | 34898 ft | 551 kts | 94° |
| 2026-05-07 17:13 | 23.14561 | 80.81888 | 34908 ft | 550 kts | 93° |
| 2026-05-07 17:14 | 23.14109 | 80.90223 | 34909 ft | 550 kts | 94° |
| 2026-05-07 17:14 | 23.13656 | 80.98517 | 34908 ft | 551 kts | 94° |
| 2026-05-07 17:15 | 23.13198 | 81.06807 | 34906 ft | 551 kts | 94° |
| 2026-05-07 17:15 | 23.12734 | 81.15114 | 34908 ft | 552 kts | 94° |
| 2026-05-07 17:16 | 23.12267 | 81.23397 | 34902 ft | 552 kts | 94° |
| 2026-05-07 17:16 | 23.11793 | 81.31730 | 34911 ft | 552 kts | 94° |
| 2026-05-07 17:17 | 23.11316 | 81.40028 | 34906 ft | 552 kts | 94° |
| 2026-05-07 17:17 | 23.10838 | 81.48301 | 34905 ft | 552 kts | 94° |
| 2026-05-07 17:18 | 23.10351 | 81.56637 | 34903 ft | 552 kts | 94° |
| 2026-05-07 17:18 | 23.09862 | 81.64927 | 34903 ft | 552 kts | 94° |
| 2026-05-07 17:19 | 23.09366 | 81.73264 | 34898 ft | 552 kts | 95° |
| 2026-05-07 17:19 | 23.08869 | 81.81546 | 34892 ft | 552 kts | 95° |
| 2026-05-07 17:20 | 23.08364 | 81.89882 | 34893 ft | 552 kts | 95° |
| 2026-05-07 17:20 | 23.07857 | 81.98174 | 34892 ft | 552 kts | 95° |
| 2026-05-07 17:21 | 23.07347 | 82.06453 | 34891 ft | 552 kts | 95° |
| 2026-05-07 17:21 | 23.06830 | 82.14784 | 34888 ft | 552 kts | 95° |
| 2026-05-07 17:22 | 23.06376 | 82.23071 | 34889 ft | 552 kts | 94° |
| 2026-05-07 17:22 | 23.06042 | 82.31435 | 34890 ft | 552 kts | 93° |
| 2026-05-07 17:23 | 23.05709 | 82.39722 | 34892 ft | 552 kts | 94° |
| 2026-05-07 17:23 | 23.05352 | 82.48021 | 34882 ft | 553 kts | 94° |
| 2026-05-07 17:24 | 23.04977 | 82.56396 | 34887 ft | 553 kts | 94° |
| 2026-05-07 17:24 | 23.04599 | 82.64695 | 34886 ft | 553 kts | 94° |
| 2026-05-07 17:25 | 23.04214 | 82.73054 | 34887 ft | 553 kts | 94° |
| 2026-05-07 17:25 | 23.03829 | 82.81361 | 34891 ft | 553 kts | 95° |
| 2026-05-07 17:26 | 23.03438 | 82.89678 | 34891 ft | 554 kts | 95° |
| 2026-05-07 17:26 | 23.03041 | 82.98055 | 34892 ft | 555 kts | 95° |
| 2026-05-07 17:27 | 23.02641 | 83.06391 | 34898 ft | 554 kts | 95° |
| 2026-05-07 17:27 | 23.02237 | 83.14717 | 34897 ft | 554 kts | 95° |
| 2026-05-07 17:28 | 23.01826 | 83.23089 | 34908 ft | 555 kts | 95° |
| 2026-05-07 17:28 | 23.01412 | 83.31432 | 34925 ft | 556 kts | 95° |
| 2026-05-07 17:29 | 23.00994 | 83.39796 | 34921 ft | 555 kts | 95° |
| 2026-05-07 17:29 | 23.00569 | 83.48192 | 34939 ft | 555 kts | 95° |
| 2026-05-07 17:30 | 23.00142 | 83.56525 | 34934 ft | 553 kts | 95° |
| 2026-05-07 17:30 | 22.99715 | 83.64807 | 34949 ft | 551 kts | 95° |
| 2026-05-07 17:31 | 22.99281 | 83.73096 | 34950 ft | 552 kts | 95° |
| 2026-05-07 17:31 | 22.98843 | 83.81397 | 34957 ft | 552 kts | 95° |
| 2026-05-07 17:32 | 22.98398 | 83.89747 | 34941 ft | 550 kts | 95° |
| 2026-05-07 17:32 | 22.98032 | 83.96598 | 34957 ft | 548 kts | 95° |
| 2026-05-07 17:33 | 22.97509 | 84.06219 | 34953 ft | 546 kts | 95° |
| 2026-05-07 17:33 | 22.97057 | 84.14432 | 34963 ft | 546 kts | 95° |
| 2026-05-07 17:34 | 22.96495 | 84.22668 | 34969 ft | 546 kts | 97° |
| 2026-05-07 17:34 | 22.95871 | 84.30846 | 34975 ft | 546 kts | 97° |
| 2026-05-07 17:35 | 22.95255 | 84.39030 | 34977 ft | 547 kts | 97° |
| 2026-05-07 17:35 | 22.94647 | 84.47250 | 34973 ft | 547 kts | 97° |
| 2026-05-07 17:36 | 22.94038 | 84.55495 | 34981 ft | 547 kts | 97° |
| 2026-05-07 17:36 | 22.93430 | 84.63688 | 34982 ft | 547 kts | 97° |
| 2026-05-07 17:37 | 22.92817 | 84.71876 | 34985 ft | 547 kts | 97° |
| 2026-05-07 17:37 | 22.92193 | 84.80143 | 34986 ft | 548 kts | 97° |
| 2026-05-07 17:38 | 22.91569 | 84.88348 | 34991 ft | 548 kts | 97° |
| 2026-05-07 17:38 | 22.90940 | 84.96561 | 34991 ft | 548 kts | 97° |
| 2026-05-07 17:39 | 22.90307 | 85.04776 | 34990 ft | 548 kts | 97° |
| 2026-05-07 17:39 | 22.89667 | 85.13038 | 34983 ft | 547 kts | 97° |
| 2026-05-07 17:40 | 22.89033 | 85.21227 | 34983 ft | 547 kts | 97° |
| 2026-05-07 17:40 | 22.88399 | 85.29424 | 34985 ft | 547 kts | 97° |
| 2026-05-07 17:41 | 22.87759 | 85.37649 | 34988 ft | 547 kts | 97° |
| 2026-05-07 17:41 | 22.87112 | 85.45897 | 34987 ft | 547 kts | 98° |
| 2026-05-07 17:42 | 22.86464 | 85.54109 | 34984 ft | 548 kts | 98° |
| 2026-05-07 17:42 | 22.85811 | 85.62318 | 34980 ft | 547 kts | 98° |
| 2026-05-07 17:43 | 22.85154 | 85.70515 | 34980 ft | 548 kts | 98° |
| 2026-05-07 17:43 | 22.84493 | 85.78719 | 34967 ft | 548 kts | 98° |
| 2026-05-07 17:44 | 22.83829 | 85.86921 | 34970 ft | 548 kts | 98° |
| 2026-05-07 17:44 | 22.83158 | 85.95138 | 34956 ft | 548 kts | 98° |
| 2026-05-07 17:45 | 22.82482 | 86.03381 | 34958 ft | 548 kts | 98° |
| 2026-05-07 17:45 | 22.81807 | 86.11557 | 34958 ft | 548 kts | 98° |
| 2026-05-07 17:46 | 22.81129 | 86.19801 | 34955 ft | 548 kts | 97° |
| 2026-05-07 17:46 | 22.80663 | 86.28005 | 34962 ft | 548 kts | 96° |
| 2026-05-07 17:47 | 22.80276 | 86.36287 | 34956 ft | 548 kts | 96° |
| 2026-05-07 17:47 | 22.79860 | 86.44515 | 34955 ft | 548 kts | 96° |
| 2026-05-07 17:48 | 22.79414 | 86.52746 | 34954 ft | 548 kts | 96° |
| 2026-05-07 17:48 | 22.78956 | 86.60970 | 34950 ft | 547 kts | 96° |
| 2026-05-07 17:49 | 22.78572 | 86.67817 | 34946 ft | 547 kts | 96° |
| 2026-05-07 17:49 | 22.78106 | 86.76054 | 34947 ft | 546 kts | 96° |
| 2026-05-07 17:50 | 22.77640 | 86.84242 | 34942 ft | 546 kts | 96° |
| 2026-05-07 17:50 | 22.77167 | 86.92481 | 34941 ft | 546 kts | 96° |
| 2026-05-07 17:51 | 22.76694 | 87.00647 | 34938 ft | 545 kts | 97° |
| 2026-05-07 17:51 | 22.76213 | 87.08870 | 34939 ft | 544 kts | 97° |
| 2026-05-07 17:52 | 22.75733 | 87.17023 | 34917 ft | 544 kts | 97° |
| 2026-05-07 17:52 | 22.75247 | 87.25202 | 34933 ft | 542 kts | 97° |
| 2026-05-07 17:53 | 22.74761 | 87.33303 | 34921 ft | 540 kts | 97° |
| 2026-05-07 17:53 | 22.74272 | 87.41381 | 34924 ft | 539 kts | 97° |
| 2026-05-07 17:54 | 22.73776 | 87.49495 | 34931 ft | 539 kts | 97° |
| 2026-05-07 17:54 | 22.73280 | 87.57551 | 34914 ft | 539 kts | 97° |
| 2026-05-07 17:55 | 22.72777 | 87.65667 | 34930 ft | 539 kts | 97° |
| 2026-05-07 17:55 | 22.72273 | 87.73731 | 34926 ft | 539 kts | 97° |
| 2026-05-07 17:56 | 22.71763 | 87.81822 | 34921 ft | 538 kts | 97° |
| 2026-05-07 17:56 | 22.71248 | 87.89921 | 34909 ft | 538 kts | 97° |
| 2026-05-07 17:57 | 22.70732 | 87.97985 | 34916 ft | 538 kts | 97° |
| 2026-05-07 17:57 | 22.70208 | 88.06098 | 34913 ft | 538 kts | 97° |
| 2026-05-07 17:58 | 22.69684 | 88.14149 | 34906 ft | 538 kts | 97° |
| 2026-05-07 17:58 | 22.69157 | 88.22197 | 34910 ft | 537 kts | 97° |
| 2026-05-07 17:59 | 22.68623 | 88.30271 | 34907 ft | 537 kts | 97° |
| 2026-05-07 17:59 | 22.68088 | 88.38306 | 34918 ft | 537 kts | 97° |
| 2026-05-07 18:00 | 22.67358 | 88.46289 | 34912 ft | 534 kts | 103° |
| 2026-05-07 18:00 | 22.66113 | 88.54239 | 34916 ft | 532 kts | 104° |
| 2026-05-07 18:01 | 22.64799 | 88.62089 | 34911 ft | 532 kts | 104° |
| 2026-05-07 18:01 | 22.63473 | 88.69941 | 34900 ft | 532 kts | 104° |
| 2026-05-07 18:02 | 22.61491 | 88.81729 | 34902 ft | 532 kts | 104° |
| 2026-05-07 18:03 | 22.60165 | 88.89616 | 34904 ft | 532 kts | 104° |
| 2026-05-07 18:03 | 22.58885 | 88.97481 | 34906 ft | 533 kts | 102° |
| 2026-05-07 18:04 | 22.58014 | 89.05438 | 34898 ft | 534 kts | 99° |
| 2026-05-07 18:04 | 22.57239 | 89.13472 | 34894 ft | 535 kts | 100° |
| 2026-05-07 18:05 | 22.56410 | 89.21431 | 34904 ft | 534 kts | 100° |
| 2026-05-07 18:05 | 22.55534 | 89.29384 | 34898 ft | 535 kts | 101° |
| 2026-05-07 18:06 | 22.54640 | 89.37359 | 34901 ft | 535 kts | 101° |
| 2026-05-07 18:06 | 22.53743 | 89.45333 | 34902 ft | 535 kts | 101° |
| 2026-05-07 18:07 | 22.52839 | 89.53358 | 34899 ft | 535 kts | 101° |
| 2026-05-07 18:07 | 22.51940 | 89.61315 | 34906 ft | 535 kts | 101° |
| 2026-05-07 18:08 | 22.51032 | 89.69312 | 34903 ft | 535 kts | 101° |
| 2026-05-07 18:08 | 22.50124 | 89.77264 | 34898 ft | 535 kts | 101° |
| 2026-05-07 18:09 | 22.49213 | 89.85217 | 34900 ft | 535 kts | 101° |
| 2026-05-07 18:09 | 22.48288 | 89.93251 | 34900 ft | 535 kts | 101° |
| 2026-05-07 18:10 | 22.47368 | 90.01209 | 34899 ft | 535 kts | 101° |
| 2026-05-07 18:10 | 22.46442 | 90.09182 | 34906 ft | 536 kts | 101° |
| 2026-05-07 18:11 | 22.45512 | 90.17162 | 34887 ft | 536 kts | 101° |
| 2026-05-07 18:11 | 22.44579 | 90.25135 | 34896 ft | 534 kts | 101° |
| 2026-05-07 18:12 | 22.43643 | 90.33091 | 34897 ft | 534 kts | 101° |
| 2026-05-07 18:12 | 22.42700 | 90.41068 | 34894 ft | 534 kts | 101° |
| 2026-05-07 18:13 | 22.41759 | 90.48998 | 34897 ft | 534 kts | 101° |
| 2026-05-07 18:13 | 22.40812 | 90.56943 | 34901 ft | 534 kts | 101° |
| 2026-05-07 18:14 | 22.39861 | 90.64896 | 34897 ft | 534 kts | 101° |
| 2026-05-07 18:14 | 22.38901 | 90.72885 | 34900 ft | 534 kts | 101° |
| 2026-05-07 18:15 | 22.37945 | 90.80802 | 34895 ft | 534 kts | 101° |
| 2026-05-07 18:15 | 22.36983 | 90.88745 | 34897 ft | 534 kts | 101° |
| 2026-05-07 18:16 | 22.36019 | 90.96667 | 34893 ft | 534 kts | 101° |
| 2026-05-07 18:16 | 22.35043 | 91.04650 | 34892 ft | 534 kts | 101° |
| 2026-05-07 18:17 | 22.34070 | 91.12582 | 34887 ft | 534 kts | 101° |
| 2026-05-07 18:17 | 22.33094 | 91.20506 | 34886 ft | 534 kts | 101° |
| 2026-05-07 18:18 | 22.32113 | 91.28435 | 34882 ft | 534 kts | 101° |
| 2026-05-07 18:18 | 22.31130 | 91.36354 | 34885 ft | 534 kts | 101° |
| 2026-05-07 18:19 | 22.30170 | 91.44309 | 34881 ft | 534 kts | 101° |
| 2026-05-07 18:19 | 22.29275 | 91.52270 | 34889 ft | 534 kts | 100° |
| 2026-05-07 18:20 | 22.28381 | 91.60210 | 34895 ft | 533 kts | 100° |
| 2026-05-07 18:20 | 22.27468 | 91.68176 | 34906 ft | 533 kts | 100° |
| 2026-05-07 18:21 | 22.26549 | 91.76109 | 34911 ft | 533 kts | 101° |
| 2026-05-07 18:21 | 22.26111 | 91.84051 | 34912 ft | 538 kts | 87° |
| 2026-05-07 18:22 | 22.27011 | 91.92084 | 34870 ft | 539 kts | 83° |
| 2026-05-07 18:22 | 22.28143 | 92.00076 | 34875 ft | 539 kts | 83° |
| 2026-05-07 18:23 | 22.29295 | 92.08081 | 34875 ft | 539 kts | 83° |
| 2026-05-07 18:23 | 22.30415 | 92.16058 | 34883 ft | 539 kts | 83° |
| 2026-05-07 18:24 | 22.31516 | 92.24046 | 34879 ft | 539 kts | 83° |
| 2026-05-07 18:24 | 22.32621 | 92.32094 | 34893 ft | 539 kts | 83° |
| 2026-05-07 18:25 | 22.33712 | 92.40080 | 34891 ft | 539 kts | 83° |
| 2026-05-07 18:25 | 22.34801 | 92.48085 | 34898 ft | 539 kts | 83° |
| 2026-05-07 18:26 | 22.35888 | 92.56095 | 34901 ft | 539 kts | 83° |
| 2026-05-07 18:26 | 22.36967 | 92.64080 | 34912 ft | 539 kts | 83° |
| 2026-05-07 18:27 | 22.38046 | 92.72091 | 34904 ft | 538 kts | 83° |
| 2026-05-07 18:27 | 22.39119 | 92.80063 | 34931 ft | 538 kts | 83° |
| 2026-05-07 18:28 | 22.40202 | 92.88098 | 34930 ft | 538 kts | 83° |
| 2026-05-07 18:28 | 22.41272 | 92.96066 | 34957 ft | 537 kts | 83° |
| 2026-05-07 18:29 | 22.42336 | 93.04014 | 34958 ft | 537 kts | 83° |
| 2026-05-07 18:29 | 22.43409 | 93.12027 | 34986 ft | 539 kts | 83° |
| 2026-05-07 18:30 | 22.44475 | 93.20035 | 34981 ft | 540 kts | 83° |
| 2026-05-07 18:30 | 22.45535 | 93.28082 | 35003 ft | 540 kts | 83° |
| 2026-05-07 18:31 | 22.46590 | 93.36145 | 35005 ft | 540 kts | 83° |
| 2026-05-07 18:31 | 22.47638 | 93.44150 | 35006 ft | 540 kts | 83° |
| 2026-05-07 18:32 | 22.48690 | 93.52211 | 34994 ft | 541 kts | 84° |
| 2026-05-07 18:32 | 22.49736 | 93.60261 | 34985 ft | 541 kts | 83° |
| 2026-05-07 18:33 | 22.50778 | 93.68287 | 34980 ft | 541 kts | 83° |
| 2026-05-07 18:33 | 22.51818 | 93.76319 | 34986 ft | 541 kts | 83° |
| 2026-05-07 18:34 | 22.52849 | 93.84357 | 34959 ft | 540 kts | 84° |
| 2026-05-07 18:34 | 22.53876 | 93.92393 | 34959 ft | 541 kts | 83° |
| 2026-05-07 18:35 | 22.54910 | 94.00502 | 34923 ft | 542 kts | 84° |
| 2026-05-07 18:35 | 22.55927 | 94.08507 | 34924 ft | 541 kts | 84° |
| 2026-05-07 18:36 | 22.56952 | 94.16609 | 34906 ft | 541 kts | 84° |
| 2026-05-07 18:36 | 22.57966 | 94.24664 | 34900 ft | 541 kts | 83° |
| 2026-05-07 18:37 | 22.58974 | 94.32699 | 34895 ft | 540 kts | 84° |
| 2026-05-07 18:37 | 22.59980 | 94.40747 | 34895 ft | 540 kts | 83° |
| 2026-05-07 18:38 | 22.60981 | 94.48769 | 34891 ft | 539 kts | 84° |
| 2026-05-07 18:38 | 22.61981 | 94.56851 | 34891 ft | 540 kts | 84° |
| 2026-05-07 18:39 | 22.62971 | 94.64894 | 34881 ft | 539 kts | 84° |
| 2026-05-07 18:39 | 22.63957 | 94.72919 | 34873 ft | 539 kts | 84° |
| 2026-05-07 18:40 | 22.64944 | 94.80993 | 34876 ft | 539 kts | 84° |
| 2026-05-07 18:40 | 22.65921 | 94.89017 | 34869 ft | 539 kts | 84° |
| 2026-05-07 18:41 | 22.66893 | 94.97023 | 34866 ft | 539 kts | 84° |
| 2026-05-07 18:41 | 22.67869 | 95.05105 | 34863 ft | 539 kts | 84° |
| 2026-05-07 18:42 | 22.68832 | 95.13110 | 34865 ft | 539 kts | 84° |
| 2026-05-07 18:42 | 22.69794 | 95.21145 | 34872 ft | 539 kts | 84° |
| 2026-05-07 18:43 | 22.70755 | 95.29208 | 34862 ft | 541 kts | 84° |
| 2026-05-07 18:43 | 22.71715 | 95.37298 | 34858 ft | 541 kts | 84° |
| 2026-05-07 18:44 | 22.72671 | 95.45380 | 34860 ft | 541 kts | 84° |
| 2026-05-07 18:44 | 22.73620 | 95.53444 | 34860 ft | 541 kts | 84° |
| 2026-05-07 18:45 | 22.74566 | 95.61519 | 34855 ft | 541 kts | 84° |
| 2026-05-07 18:45 | 22.75512 | 95.69630 | 34860 ft | 541 kts | 84° |
| 2026-05-07 18:46 | 22.76448 | 95.77690 | 34860 ft | 540 kts | 84° |
| 2026-05-07 18:46 | 22.77379 | 95.85740 | 34865 ft | 540 kts | 84° |
| 2026-05-07 18:47 | 22.78309 | 95.93828 | 34874 ft | 540 kts | 84° |
| 2026-05-07 18:47 | 22.79231 | 96.01875 | 34876 ft | 540 kts | 84° |
| 2026-05-07 18:48 | 22.80149 | 96.09928 | 34886 ft | 540 kts | 84° |
| 2026-05-07 18:48 | 22.81063 | 96.17978 | 34898 ft | 538 kts | 84° |
| 2026-05-07 18:49 | 22.81973 | 96.26021 | 34916 ft | 538 kts | 84° |
| 2026-05-07 18:49 | 22.82880 | 96.34090 | 34918 ft | 538 kts | 84° |
| 2026-05-07 18:50 | 22.83779 | 96.42116 | 34934 ft | 538 kts | 84° |
| 2026-05-07 18:50 | 22.84675 | 96.50156 | 34933 ft | 538 kts | 84° |
| 2026-05-07 18:51 | 22.85569 | 96.58208 | 34940 ft | 537 kts | 84° |
| 2026-05-07 18:51 | 22.86457 | 96.66241 | 34932 ft | 537 kts | 84° |
| 2026-05-07 18:52 | 22.87344 | 96.74314 | 34943 ft | 537 kts | 84° |
| 2026-05-07 18:52 | 22.88218 | 96.82306 | 34954 ft | 537 kts | 84° |
| 2026-05-07 18:53 | 22.89095 | 96.90374 | 34958 ft | 537 kts | 84° |
| 2026-05-07 18:53 | 22.89964 | 96.98390 | 34959 ft | 536 kts | 84° |
| 2026-05-07 18:54 | 22.90829 | 97.06418 | 34954 ft | 536 kts | 84° |
| 2026-05-07 18:54 | 22.91691 | 97.14450 | 34944 ft | 536 kts | 84° |
| 2026-05-07 18:55 | 22.92543 | 97.22414 | 34936 ft | 535 kts | 84° |
| 2026-05-07 18:55 | 22.93394 | 97.30429 | 34941 ft | 536 kts | 84° |
| 2026-05-07 18:56 | 22.94248 | 97.38487 | 34950 ft | 537 kts | 84° |
| 2026-05-07 18:56 | 22.95097 | 97.46542 | 34948 ft | 539 kts | 84° |
| 2026-05-07 18:57 | 22.95941 | 97.54605 | 34947 ft | 539 kts | 84° |
| 2026-05-07 18:57 | 22.96784 | 97.62700 | 34931 ft | 538 kts | 84° |
| 2026-05-07 18:58 | 22.97617 | 97.70733 | 34938 ft | 538 kts | 84° |
| 2026-05-07 18:58 | 22.99254 | 97.78639 | 34938 ft | 538 kts | 71° |
| 2026-05-07 18:59 | 23.01763 | 97.86296 | 34935 ft | 538 kts | 69° |
| 2026-05-07 18:59 | 23.04393 | 97.93882 | 34949 ft | 538 kts | 69° |
| 2026-05-07 19:00 | 23.07032 | 98.01505 | 34947 ft | 538 kts | 69° |
| 2026-05-07 19:00 | 23.09639 | 98.09114 | 34955 ft | 538 kts | 69° |
| 2026-05-07 19:01 | 23.12233 | 98.16729 | 34955 ft | 538 kts | 69° |
| 2026-05-07 19:01 | 23.14818 | 98.24339 | 34958 ft | 538 kts | 69° |
| 2026-05-07 19:02 | 23.16967 | 98.30671 | 34959 ft | 538 kts | 69° |
| 2026-05-07 19:02 | 23.19981 | 98.39567 | 34966 ft | 537 kts | 69° |
| 2026-05-07 19:03 | 23.22547 | 98.47154 | 34966 ft | 538 kts | 69° |
| 2026-05-07 19:03 | 23.25129 | 98.54800 | 34961 ft | 539 kts | 69° |
| 2026-05-07 19:04 | 23.27705 | 98.62446 | 34967 ft | 538 kts | 69° |
| 2026-05-07 19:04 | 23.29846 | 98.68814 | 34968 ft | 539 kts | 69° |
| 2026-05-07 19:05 | 23.32416 | 98.76468 | 34963 ft | 538 kts | 69° |
| 2026-05-07 19:05 | 23.34971 | 98.84084 | 34967 ft | 537 kts | 69° |
| 2026-05-07 19:06 | 23.37526 | 98.91719 | 34970 ft | 537 kts | 69° |
| 2026-05-07 19:06 | 23.41193 | 99.03255 | 34997 ft | 538 kts | 71° |
| 2026-05-07 19:07 | 23.43565 | 99.10969 | 35001 ft | 537 kts | 71° |
| 2026-05-07 19:07 | 23.45952 | 99.18676 | 35001 ft | 537 kts | 71° |
| 2026-05-07 19:08 | 23.48343 | 99.26361 | 35008 ft | 538 kts | 71° |
| 2026-05-07 19:08 | 23.50750 | 99.34096 | 35000 ft | 539 kts | 71° |
| 2026-05-07 19:09 | 23.53439 | 99.41727 | 35005 ft | 538 kts | 60° |
| 2026-05-07 19:09 | 23.57000 | 99.48896 | 35060 ft | 538 kts | 59° |
| 2026-05-07 19:10 | 23.60694 | 99.55946 | 35115 ft | 539 kts | 58° |
| 2026-05-07 19:10 | 23.64437 | 99.63059 | 35114 ft | 539 kts | 58° |
| 2026-05-07 19:11 | 23.68151 | 99.70169 | 35121 ft | 539 kts | 59° |
| 2026-05-07 19:11 | 23.71829 | 99.77242 | 35117 ft | 539 kts | 59° |
| 2026-05-07 19:12 | 23.75526 | 99.84365 | 35132 ft | 539 kts | 58° |
| 2026-05-07 19:12 | 23.79215 | 99.91488 | 35110 ft | 539 kts | 59° |
| 2026-05-07 19:13 | 23.82910 | 99.98646 | 35127 ft | 541 kts | 59° |
| 2026-05-07 19:13 | 23.86597 | 100.05761 | 35123 ft | 541 kts | 59° |
| 2026-05-07 19:14 | 23.90294 | 100.12914 | 35123 ft | 540 kts | 59° |
| 2026-05-07 19:14 | 23.93991 | 100.20085 | 35131 ft | 540 kts | 59° |
| 2026-05-07 19:15 | 23.97667 | 100.27231 | 35130 ft | 540 kts | 59° |
| 2026-05-07 19:15 | 24.01336 | 100.34372 | 35134 ft | 539 kts | 59° |
| 2026-05-07 19:16 | 24.05022 | 100.41554 | 35154 ft | 540 kts | 59° |
| 2026-05-07 19:16 | 24.08686 | 100.48705 | 35150 ft | 541 kts | 59° |
| 2026-05-07 19:17 | 24.12386 | 100.55932 | 35118 ft | 543 kts | 59° |
| 2026-05-07 19:17 | 24.15986 | 100.63081 | 35148 ft | 543 kts | 59° |
| 2026-05-07 19:18 | 24.19603 | 100.70317 | 35161 ft | 542 kts | 59° |
| 2026-05-07 19:18 | 24.23213 | 100.77534 | 35170 ft | 542 kts | 59° |
| 2026-05-07 19:19 | 24.25033 | 100.81178 | 35047 ft | 543 kts | 59° |
| 2026-05-07 19:19 | 24.26828 | 100.84773 | 34823 ft | 542 kts | 59° |
| 2026-05-07 19:19 | 24.28644 | 100.88410 | 34442 ft | 542 kts | 59° |
| 2026-05-07 19:19 | 24.30461 | 100.92054 | 33665 ft | 545 kts | 59° |
| 2026-05-07 19:20 | 24.32296 | 100.95733 | 32824 ft | 549 kts | 59° |
| 2026-05-07 19:20 | 24.34132 | 100.99419 | 32039 ft | 553 kts | 59° |
| 2026-05-07 19:20 | 24.35961 | 101.03091 | 31235 ft | 555 kts | 60° |
| 2026-05-07 19:20 | 24.37819 | 101.06825 | 30511 ft | 556 kts | 60° |
| 2026-05-07 19:21 | 24.39671 | 101.10553 | 29688 ft | 557 kts | 60° |
| 2026-05-07 19:21 | 24.41528 | 101.14295 | 28870 ft | 557 kts | 60° |
| 2026-05-07 19:21 | 24.43360 | 101.17987 | 28142 ft | 554 kts | 60° |
| 2026-05-07 19:21 | 24.45195 | 101.21692 | 27457 ft | 550 kts | 60° |
| 2026-05-07 19:22 | 24.47021 | 101.25372 | 26842 ft | 544 kts | 60° |
| 2026-05-07 19:22 | 24.48806 | 101.28979 | 26252 ft | 540 kts | 60° |
| 2026-05-07 19:22 | 24.50593 | 101.32587 | 25657 ft | 535 kts | 60° |
| 2026-05-07 19:22 | 24.52367 | 101.36177 | 25070 ft | 530 kts | 60° |
| 2026-05-07 19:23 | 24.54108 | 101.39704 | 24520 ft | 525 kts | 60° |
| 2026-05-07 19:23 | 24.55854 | 101.43238 | 23942 ft | 522 kts | 60° |
| 2026-05-07 19:23 | 24.57578 | 101.46741 | 23307 ft | 517 kts | 60° |
| 2026-05-07 19:23 | 24.59262 | 101.50164 | 22719 ft | 511 kts | 60° |
| 2026-05-07 19:24 | 24.60842 | 101.53659 | 22104 ft | 507 kts | 69° |
| 2026-05-07 19:24 | 24.61668 | 101.57347 | 21580 ft | 500 kts | 85° |
| 2026-05-07 19:24 | 24.61603 | 101.61132 | 21075 ft | 490 kts | 101° |
| 2026-05-07 19:24 | 24.60688 | 101.64696 | 20505 ft | 480 kts | 115° |
| 2026-05-07 19:25 | 24.59439 | 101.68077 | 19939 ft | 475 kts | 115° |
| 2026-05-07 19:25 | 24.58243 | 101.71462 | 19364 ft | 473 kts | 113° |
| 2026-05-07 19:25 | 24.57132 | 101.74853 | 18819 ft | 470 kts | 111° |
| 2026-05-07 19:25 | 24.56092 | 101.78192 | 18291 ft | 466 kts | 110° |
| 2026-05-07 19:26 | 24.55071 | 101.81565 | 17664 ft | 460 kts | 110° |
| 2026-05-07 19:26 | 24.54088 | 101.84867 | 16657 ft | 447 kts | 109° |
| 2026-05-07 19:26 | 24.53146 | 101.88057 | 15242 ft | 436 kts | 109° |
| 2026-05-07 19:26 | 24.52217 | 101.91190 | 14462 ft | 428 kts | 109° |
| 2026-05-07 19:27 | 24.51311 | 101.94262 | 14321 ft | 412 kts | 109° |
| 2026-05-07 19:27 | 24.50458 | 101.97157 | 14223 ft | 397 kts | 109° |
| 2026-05-07 19:27 | 24.49619 | 102.00008 | 14137 ft | 385 kts | 109° |
| 2026-05-07 19:27 | 24.48806 | 102.02774 | 14046 ft | 373 kts | 109° |
| 2026-05-07 19:28 | 24.48199 | 102.05467 | 13945 ft | 363 kts | 95° |
| 2026-05-07 19:28 | 24.48473 | 102.08158 | 13820 ft | 348 kts | 69° |
| 2026-05-07 19:28 | 24.49645 | 102.10351 | 13706 ft | 320 kts | 48° |
| 2026-05-07 19:28 | 24.51025 | 102.12120 | 13574 ft | 298 kts | 46° |
| 2026-05-07 19:29 | 24.52393 | 102.13824 | 13368 ft | 297 kts | 46° |
| 2026-05-07 19:29 | 24.53784 | 102.15527 | 13124 ft | 298 kts | 42° |
| 2026-05-07 19:29 | 24.55463 | 102.16773 | 12819 ft | 293 kts | 17° |
| 2026-05-07 19:29 | 24.57435 | 102.17065 | 12589 ft | 282 kts | 349° |
| 2026-05-07 19:30 | 24.59284 | 102.16389 | 12577 ft | 279 kts | 328° |
| 2026-05-07 19:30 | 24.60925 | 102.15311 | 12564 ft | 275 kts | 324° |
| 2026-05-07 19:30 | 24.62527 | 102.14170 | 12562 ft | 275 kts | 324° |
| 2026-05-07 19:30 | 24.64211 | 102.13151 | 12526 ft | 277 kts | 334° |
| 2026-05-07 19:31 | 24.66036 | 102.12415 | 12496 ft | 280 kts | 338° |
| 2026-05-07 19:31 | 24.67885 | 102.11748 | 12454 ft | 281 kts | 339° |
| 2026-05-07 19:31 | 24.69756 | 102.11079 | 12428 ft | 282 kts | 339° |
| 2026-05-07 19:31 | 24.71600 | 102.10433 | 12396 ft | 279 kts | 341° |
| 2026-05-07 19:32 | 24.73532 | 102.10068 | 12370 ft | 284 kts | 352° |
| 2026-05-07 19:32 | 24.75512 | 102.09901 | 12325 ft | 285 kts | 353° |
| 2026-05-07 19:32 | 24.77497 | 102.09762 | 12311 ft | 284 kts | 353° |
| 2026-05-07 19:32 | 24.79443 | 102.09626 | 12276 ft | 284 kts | 353° |
| 2026-05-07 19:33 | 24.81434 | 102.09586 | 12244 ft | 286 kts | 2° |
| 2026-05-07 19:33 | 24.83409 | 102.09895 | 12213 ft | 288 kts | 7° |
| 2026-05-07 19:33 | 24.85375 | 102.10297 | 12184 ft | 284 kts | 8° |
| 2026-05-07 19:33 | 24.87308 | 102.10696 | 12152 ft | 287 kts | 8° |
| 2026-05-07 19:34 | 24.89282 | 102.11107 | 12114 ft | 287 kts | 9° |
| 2026-05-07 19:34 | 24.91189 | 102.11795 | 12099 ft | 289 kts | 21° |
| 2026-05-07 19:34 | 24.93016 | 102.12697 | 12052 ft | 291 kts | 23° |
| 2026-05-07 19:34 | 24.94832 | 102.13630 | 12024 ft | 286 kts | 23° |
| 2026-05-07 19:35 | 24.96659 | 102.14559 | 12001 ft | 290 kts | 23° |
| 2026-05-07 19:35 | 24.98430 | 102.15579 | 11955 ft | 291 kts | 32° |
| 2026-05-07 19:35 | 25.00046 | 102.16913 | 11930 ft | 288 kts | 38° |
| 2026-05-07 19:35 | 25.01616 | 102.18328 | 11897 ft | 291 kts | 38° |
| 2026-05-07 19:36 | 25.03001 | 102.19908 | 11883 ft | 289 kts | 57° |
| 2026-05-07 19:36 | 25.03671 | 102.21982 | 11852 ft | 290 kts | 87° |
| 2026-05-07 19:36 | 25.03335 | 102.24144 | 11821 ft | 285 kts | 117° |
| 2026-05-07 19:36 | 25.02114 | 102.25823 | 11793 ft | 280 kts | 147° |
| 2026-05-07 19:37 | 25.00480 | 102.26985 | 11746 ft | 281 kts | 146° |
| 2026-05-07 19:37 | 24.98984 | 102.28349 | 11730 ft | 281 kts | 140° |
| 2026-05-07 19:37 | 24.97546 | 102.29816 | 11691 ft | 282 kts | 139° |
| 2026-05-07 19:37 | 24.96114 | 102.31306 | 11658 ft | 283 kts | 139° |
| 2026-05-07 19:38 | 24.94698 | 102.32779 | 11625 ft | 279 kts | 139° |
| 2026-05-07 19:38 | 24.93284 | 102.34252 | 11613 ft | 281 kts | 139° |
| 2026-05-07 19:38 | 24.91863 | 102.35736 | 11591 ft | 282 kts | 139° |
| 2026-05-07 19:38 | 24.90448 | 102.37213 | 11564 ft | 278 kts | 139° |
| 2026-05-07 19:39 | 24.89049 | 102.38671 | 11517 ft | 280 kts | 139° |
| 2026-05-07 19:39 | 24.87646 | 102.40137 | 11498 ft | 271 kts | 139° |
| 2026-05-07 19:39 | 24.86296 | 102.41545 | 11462 ft | 262 kts | 139° |
| 2026-05-07 19:39 | 24.85007 | 102.42888 | 11428 ft | 253 kts | 139° |
| 2026-05-07 19:40 | 24.83749 | 102.44198 | 11402 ft | 243 kts | 139° |
| 2026-05-07 19:40 | 24.82535 | 102.45462 | 11343 ft | 236 kts | 139° |
| 2026-05-07 19:40 | 24.81371 | 102.46673 | 11259 ft | 229 kts | 139° |
| 2026-05-07 19:40 | 24.80225 | 102.47865 | 11194 ft | 222 kts | 139° |
| 2026-05-07 19:41 | 24.79136 | 102.49048 | 11139 ft | 216 kts | 135° |
| 2026-05-07 19:41 | 24.78170 | 102.50255 | 11120 ft | 209 kts | 132° |
| 2026-05-07 19:41 | 24.77258 | 102.51498 | 11113 ft | 209 kts | 131° |
| 2026-05-07 19:41 | 24.76360 | 102.52766 | 11108 ft | 208 kts | 130° |
| 2026-05-07 19:42 | 24.75476 | 102.54031 | 11098 ft | 208 kts | 130° |
| 2026-05-07 19:42 | 24.74598 | 102.55281 | 11089 ft | 208 kts | 130° |
| 2026-05-07 19:42 | 24.73704 | 102.56545 | 11077 ft | 208 kts | 130° |
| 2026-05-07 19:42 | 24.72936 | 102.57912 | 11057 ft | 210 kts | 115° |
| 2026-05-07 19:43 | 24.72582 | 102.59457 | 11028 ft | 213 kts | 95° |
| 2026-05-07 19:43 | 24.72798 | 102.61070 | 11021 ft | 215 kts | 69° |
| 2026-05-07 19:43 | 24.73605 | 102.62449 | 11033 ft | 216 kts | 48° |
| 2026-05-07 19:43 | 24.74676 | 102.63600 | 11037 ft | 217 kts | 40° |
| 2026-05-07 19:44 | 24.75859 | 102.64642 | 11023 ft | 217 kts | 37° |
| 2026-05-07 19:44 | 24.77070 | 102.65619 | 11003 ft | 218 kts | 35° |
| 2026-05-07 19:44 | 24.78302 | 102.66598 | 10984 ft | 217 kts | 36° |
| 2026-05-07 19:44 | 24.79520 | 102.67594 | 10952 ft | 217 kts | 37° |
| 2026-05-07 19:45 | 24.80724 | 102.68601 | 10938 ft | 217 kts | 37° |
| 2026-05-07 19:45 | 24.81923 | 102.69619 | 10898 ft | 217 kts | 38° |
| 2026-05-07 19:45 | 24.83105 | 102.70631 | 10873 ft | 217 kts | 38° |
| 2026-05-07 19:45 | 24.84299 | 102.71659 | 10815 ft | 217 kts | 38° |
| 2026-05-07 19:46 | 24.85489 | 102.72686 | 10780 ft | 217 kts | 38° |
| 2026-05-07 19:46 | 24.86632 | 102.73675 | 10804 ft | 204 kts | 38° |
| 2026-05-07 19:46 | 24.87726 | 102.74622 | 10786 ft | 196 kts | 38° |
| 2026-05-07 19:46 | 24.88803 | 102.75558 | 10779 ft | 196 kts | 38° |
| 2026-05-07 19:47 | 24.89862 | 102.76483 | 10779 ft | 197 kts | 38° |
| 2026-05-07 19:47 | 24.90944 | 102.77426 | 10776 ft | 197 kts | 38° |
| 2026-05-07 19:47 | 24.92023 | 102.78350 | 10783 ft | 198 kts | 36° |
| 2026-05-07 19:47 | 24.93125 | 102.79254 | 10778 ft | 197 kts | 37° |
| 2026-05-07 19:48 | 24.94217 | 102.80186 | 10648 ft | 199 kts | 38° |
| 2026-05-07 19:48 | 24.95306 | 102.81136 | 10411 ft | 200 kts | 39° |
| 2026-05-07 19:48 | 24.96404 | 102.82096 | 10145 ft | 202 kts | 39° |
| 2026-05-07 19:48 | 24.97503 | 102.83053 | 9833 ft | 204 kts | 39° |
| 2026-05-07 19:49 | 24.98617 | 102.84026 | 9551 ft | 203 kts | 39° |
| 2026-05-07 19:49 | 24.99720 | 102.84988 | 9283 ft | 199 kts | 40° |
| 2026-05-07 19:49 | 25.00773 | 102.85906 | 9023 ft | 190 kts | 40° |
| 2026-05-07 19:49 | 25.01782 | 102.86788 | 8780 ft | 179 kts | 40° |
| 2026-05-07 19:50 | 25.02742 | 102.87626 | 8559 ft | 172 kts | 40° |
| 2026-05-07 19:50 | 25.03659 | 102.88427 | 8338 ft | 163 kts | 40° |
| 2026-05-07 19:50 | 25.04513 | 102.89173 | 8120 ft | 155 kts | 41° |
| 2026-05-07 19:50 | 25.05359 | 102.89911 | 7918 ft | 155 kts | 41° |
| 2026-05-07 19:51 | 25.06198 | 102.90645 | 7712 ft | 153 kts | 41° |
| 2026-05-07 19:51 | 25.07025 | 102.91368 | 7481 ft | 149 kts | 39° |
| 2026-05-07 19:51 | 25.07821 | 102.92063 | 7242 ft | 146 kts | 39° |
| 2026-05-07 19:51 | 25.08612 | 102.92754 | 7046 ft | 145 kts | 38° |
| 2026-05-07 19:52 | 25.09371 | 102.93417 | 6900 ft | 103 kts | 38° |
| 2026-05-07 19:52 | 25.09523 | 102.93550 | 6899 ft | 0 kts | 38° |